Time,TemperatureF,DewpointF,PressureIn,WindDirection,WindDirectionDegrees,WindSpeedMPH,WindSpeedGustMPH,Humidity,HourlyPrecipIn,Conditions,Clouds,dailyrainin,SoftwareType,DateUTC
2013-01-18 00:00:00,27.9,6.2,30.01,NNW,344,0.0,0.0,39,0.00,,---,0.00,VWS V14.00,2013-01-18 05:00:00,
2013-01-18 00:01:00,27.9,7.3,30.01,NNW,340,1.0,3.0,41,0.00,,---,0.00,VWS V14.00,2013-01-18 05:01:00,
2013-01-18 00:02:00,27.9,6.2,30.01,NNW,340,0.0,3.0,39,0.00,,---,0.00,VWS V14.00,2013-01-18 05:02:00,
2013-01-18 00:03:00,27.9,6.7,30.01,NNW,340,2.0,3.0,40,0.00,,---,0.00,VWS V14.00,2013-01-18 05:03:00,
2013-01-18 00:05:00,27.9,6.2,30.01,NNW,338,5.0,5.0,39,0.00,,---,0.00,VWS V14.00,2013-01-18 05:05:00,
2013-01-18 00:06:00,27.9,5.6,30.01,NNW,338,1.0,5.0,38,0.00,,---,0.00,VWS V14.00,2013-01-18 05:06:00,
2013-01-18 00:07:00,27.9,6.2,30.01,NNW,338,0.0,5.0,39,0.00,,---,0.00,VWS V14.00,2013-01-18 05:07:00,
2013-01-18 00:08:00,27.9,7.3,30.01,NNW,338,0.0,5.0,41,0.00,,---,0.00,VWS V14.00,2013-01-18 05:08:00,
2013-01-18 00:10:00,27.9,7.8,30.01,NNW,338,0.0,5.0,42,0.00,,---,0.00,VWS V14.00,2013-01-18 05:10:00,
2013-01-18 00:11:00,27.9,7.3,30.01,NNW,338,0.0,5.0,41,0.00,,---,0.00,VWS V14.00,2013-01-18 05:11:00,
2013-01-18 00:12:00,27.9,6.7,30.01,NNW,347,3.0,5.0,40,0.00,,---,0.00,VWS V14.00,2013-01-18 05:12:00,
2013-01-18 00:13:00,27.9,6.2,30.02,North,359,3.0,5.0,39,0.00,,---,0.00,VWS V14.00,2013-01-18 05:13:00,
2013-01-18 00:15:00,27.9,6.2,30.02,North,357,3.0,3.0,39,0.00,,---,0.00,VWS V14.00,2013-01-18 05:15:00,
2013-01-18 00:16:00,27.9,6.2,30.02,North,357,0.0,3.0,39,0.00,,---,0.00,VWS V14.00,2013-01-18 05:16:00,
2013-01-18 00:17:00,27.9,6.7,30.02,North,357,1.0,3.0,40,0.00,,---,0.00,VWS V14.00,2013-01-18 05:17:00,
2013-01-18 00:18:00,27.9,6.2,30.02,North,357,0.0,3.0,39,0.00,,---,0.00,VWS V14.00,2013-01-18 05:18:00,
2013-01-18 00:20:00,27.9,6.2,30.02,NNW,338,0.0,4.0,39,0.00,,---,0.00,VWS V14.00,2013-01-18 05:20:00,
2013-01-18 00:21:00,27.9,6.2,30.02,NNW,338,0.0,4.0,39,0.00,,---,0.00,VWS V14.00,2013-01-18 05:21:00,
2013-01-18 00:22:00,27.9,7.3,30.02,NNW,337,0.0,4.0,41,0.00,,---,0.00,VWS V14.00,2013-01-18 05:22:00,
2013-01-18 00:23:00,27.9,7.3,30.02,NNW,333,4.0,4.0,41,0.00,,---,0.00,VWS V14.00,2013-01-18 05:23:00,
2013-01-18 00:26:00,27.8,5.5,30.02,North,6,0.0,7.0,38,0.00,,---,0.00,VWS V14.00,2013-01-18 05:26:00,
2013-01-18 00:27:00,27.8,6.1,30.02,North,0,0.0,7.0,39,0.00,,---,0.00,VWS V14.00,2013-01-18 05:27:00,
2013-01-18 00:28:00,27.8,6.1,30.02,NW,319,4.0,7.0,39,0.00,,---,0.00,VWS V14.00,2013-01-18 05:28:00,
2013-01-18 00:30:00,27.8,5.5,30.02,NNW,330,2.0,7.0,38,0.00,,---,0.00,VWS V14.00,2013-01-18 05:30:00,
2013-01-18 00:31:00,27.8,6.1,30.02,NNW,330,0.0,2.0,39,0.00,,---,0.00,VWS V14.00,2013-01-18 05:31:00,
2013-01-18 00:32:00,27.8,6.6,30.02,NNW,330,4.0,4.0,40,0.00,,---,0.00,VWS V14.00,2013-01-18 05:32:00,
2013-01-18 00:34:00,27.8,6.1,30.02,NW,324,6.0,6.0,39,0.00,,---,0.00,VWS V14.00,2013-01-18 05:34:00,
2013-01-18 00:36:00,27.8,6.1,30.02,NNW,342,4.0,6.0,39,0.00,,---,0.00,VWS V14.00,2013-01-18 05:36:00,
2013-01-18 00:37:00,27.6,5.3,30.02,NNW,328,4.0,6.0,38,0.00,,---,0.00,VWS V14.00,2013-01-18 05:37:00,
2013-01-18 00:38:00,27.6,5.3,30.02,North,357,3.0,6.0,38,0.00,,---,0.00,VWS V14.00,2013-01-18 05:38:00,
2013-01-18 00:39:00,27.6,5.9,30.02,North,352,0.0,6.0,39,0.00,,---,0.00,VWS V14.00,2013-01-18 05:39:00,
2013-01-18 00:41:00,27.6,5.9,30.02,North,351,0.0,6.0,39,0.00,,---,0.00,VWS V14.00,2013-01-18 05:41:00,
2013-01-18 00:42:00,27.6,5.9,30.02,North,352,0.0,6.0,39,0.00,,---,0.00,VWS V14.00,2013-01-18 05:42:00,
2013-01-18 00:43:00,27.6,5.9,30.02,North,351,0.0,6.0,39,0.00,,---,0.00,VWS V14.00,2013-01-18 05:43:00,
2013-01-18 00:44:00,27.6,6.4,30.03,NNW,347,2.0,6.0,40,0.00,,---,0.00,VWS V14.00,2013-01-18 05:44:00,
2013-01-18 00:45:00,27.6,5.9,30.03,North,8,1.0,6.0,39,0.00,,---,0.00,VWS V14.00,2013-01-18 05:45:00,
2013-01-18 00:46:00,27.6,6.4,30.03,North,8,0.0,1.0,40,0.00,,---,0.00,VWS V14.00,2013-01-18 05:46:00,
2013-01-18 00:47:00,27.6,6.4,30.03,NNW,330,0.0,2.0,40,0.00,,---,0.00,VWS V14.00,2013-01-18 05:47:00,
2013-01-18 00:48:00,27.6,6.4,30.03,NNW,330,0.0,2.0,40,0.00,,---,0.00,VWS V14.00,2013-01-18 05:48:00,
2013-01-18 00:49:00,27.6,6.4,30.03,NNW,330,2.0,3.0,40,0.00,,---,0.00,VWS V14.00,2013-01-18 05:49:00,
2013-01-18 00:51:00,27.6,6.4,30.03,NNW,331,0.0,3.0,40,0.00,,---,0.00,VWS V14.00,2013-01-18 05:51:00,
2013-01-18 00:52:00,27.6,7.0,30.03,NNW,331,0.0,3.0,41,0.00,,---,0.00,VWS V14.00,2013-01-18 05:52:00,
2013-01-18 00:53:00,27.6,7.0,30.03,NNW,331,0.0,3.0,41,0.00,,---,0.00,VWS V14.00,2013-01-18 05:53:00,
2013-01-18 00:54:00,27.6,7.0,30.03,NNW,335,1.0,3.0,41,0.00,,---,0.00,VWS V14.00,2013-01-18 05:54:00,
2013-01-18 00:56:00,27.6,6.4,30.03,NNW,334,0.0,3.0,40,0.00,,---,0.00,VWS V14.00,2013-01-18 05:56:00,
2013-01-18 00:58:00,27.6,6.4,30.03,NNW,334,0.0,3.0,40,0.00,,---,0.00,VWS V14.00,2013-01-18 05:58:00,
2013-01-18 00:59:00,27.6,7.0,30.02,NNW,333,0.0,3.0,41,0.00,,---,0.00,VWS V14.00,2013-01-18 05:59:00,
2013-01-18 01:00:00,27.6,7.0,30.02,NNW,333,0.0,3.0,41,0.00,,---,0.00,VWS V14.00,2013-01-18 06:00:00,
2013-01-18 01:02:00,27.5,6.9,30.02,NNW,333,1.0,1.0,41,0.00,,---,0.00,VWS V14.00,2013-01-18 06:02:00,
2013-01-18 01:03:00,27.5,6.4,30.02,NNW,333,0.0,2.0,40,0.00,,---,0.00,VWS V14.00,2013-01-18 06:03:00,
2013-01-18 01:04:00,27.5,6.9,30.02,NNW,333,0.0,2.0,41,0.00,,---,0.00,VWS V14.00,2013-01-18 06:04:00,
2013-01-18 01:07:00,27.5,6.9,30.02,NNW,333,1.0,2.0,41,0.00,,---,0.00,VWS V14.00,2013-01-18 06:07:00,
2013-01-18 01:08:00,27.5,6.4,30.02,NNW,333,0.0,2.0,40,0.00,,---,0.00,VWS V14.00,2013-01-18 06:08:00,
2013-01-18 01:09:00,27.5,6.4,30.02,NNW,341,3.0,3.0,40,0.00,,---,0.00,VWS V14.00,2013-01-18 06:09:00,
2013-01-18 01:12:00,27.5,5.8,30.02,NNW,340,0.0,4.0,39,0.00,,---,0.00,VWS V14.00,2013-01-18 06:12:00,
2013-01-18 01:13:00,27.5,6.4,30.02,NNW,340,0.0,4.0,40,0.00,,---,0.00,VWS V14.00,2013-01-18 06:13:00,
2013-01-18 01:14:00,27.5,6.9,30.02,NNW,340,1.0,4.0,41,0.00,,---,0.00,VWS V14.00,2013-01-18 06:14:00,
2013-01-18 01:15:00,27.5,6.9,30.02,NNW,340,0.0,4.0,41,0.00,,---,0.00,VWS V14.00,2013-01-18 06:15:00,
2013-01-18 01:17:00,27.5,6.9,30.02,NNW,340,0.0,2.0,41,0.00,,---,0.00,VWS V14.00,2013-01-18 06:17:00,
2013-01-18 01:18:00,27.5,6.9,30.02,NNW,340,0.0,2.0,41,0.00,,---,0.00,VWS V14.00,2013-01-18 06:18:00,
2013-01-18 01:19:00,27.5,6.9,30.02,NNW,340,0.0,2.0,41,0.00,,---,0.00,VWS V14.00,2013-01-18 06:19:00,
2013-01-18 01:22:00,27.3,6.7,30.02,NNW,340,0.0,2.0,41,0.00,,---,0.00,VWS V14.00,2013-01-18 06:22:00,
2013-01-18 01:23:00,27.3,6.7,30.02,NNW,340,2.0,2.0,41,0.00,,---,0.00,VWS V14.00,2013-01-18 06:23:00,
2013-01-18 01:24:00,27.3,6.7,30.02,NNW,340,0.0,2.0,41,0.00,,---,0.00,VWS V14.00,2013-01-18 06:24:00,
2013-01-18 01:27:00,27.3,7.2,30.02,NNW,340,0.0,2.0,42,0.00,,---,0.00,VWS V14.00,2013-01-18 06:27:00,
2013-01-18 01:28:00,27.3,7.8,30.02,NNW,340,0.0,2.0,43,0.00,,---,0.00,VWS V14.00,2013-01-18 06:28:00,
2013-01-18 01:29:00,27.3,7.2,30.01,NE,53,1.0,3.0,42,0.00,,---,0.00,VWS V14.00,2013-01-18 06:29:00,
2013-01-18 01:30:00,27.3,7.2,30.01,NE,53,0.0,3.0,42,0.00,,---,0.00,VWS V14.00,2013-01-18 06:30:00,
2013-01-18 01:32:00,27.3,6.7,30.01,NE,44,0.0,2.0,41,0.00,,---,0.00,VWS V14.00,2013-01-18 06:32:00,
2013-01-18 01:33:00,27.3,6.7,30.01,NE,44,0.0,2.0,41,0.00,,---,0.00,VWS V14.00,2013-01-18 06:33:00,
2013-01-18 01:34:00,27.3,7.2,30.01,NNE,14,3.0,3.0,42,0.00,,---,0.00,VWS V14.00,2013-01-18 06:34:00,
2013-01-18 01:37:00,27.2,6.6,30.01,NNE,19,1.0,3.0,41,0.00,,---,0.00,VWS V14.00,2013-01-18 06:37:00,
2013-01-18 01:38:00,27.2,6.1,30.01,NNE,25,0.0,3.0,40,0.00,,---,0.00,VWS V14.00,2013-01-18 06:38:00,
2013-01-18 01:39:00,27.2,6.6,30.01,NNE,25,0.0,3.0,41,0.00,,---,0.00,VWS V14.00,2013-01-18 06:39:00,
2013-01-18 01:42:00,27.2,5.0,30.01,NNE,31,0.0,3.0,38,0.00,,---,0.00,VWS V14.00,2013-01-18 06:42:00,
2013-01-18 01:43:00,27.2,5.5,30.01,NNE,25,1.0,3.0,39,0.00,,---,0.00,VWS V14.00,2013-01-18 06:43:00,
2013-01-18 01:44:00,27.0,4.8,30.00,ENE,70,2.0,2.0,38,0.00,,---,0.00,VWS V14.00,2013-01-18 06:44:00,
2013-01-18 01:45:00,27.0,4.8,30.00,ENE,71,2.0,3.0,38,0.00,,---,0.00,VWS V14.00,2013-01-18 06:45:00,
2013-01-18 01:47:00,27.0,3.0,30.00,NNE,23,0.0,5.0,35,0.00,,---,0.00,VWS V14.00,2013-01-18 06:47:00,
2013-01-18 01:48:00,27.0,3.6,30.00,NNE,23,0.0,5.0,36,0.00,,---,0.00,VWS V14.00,2013-01-18 06:48:00,
2013-01-18 01:49:00,27.0,4.2,30.00,NNW,347,2.0,5.0,37,0.00,,---,0.00,VWS V14.00,2013-01-18 06:49:00,
2013-01-18 01:52:00,26.9,2.9,30.00,NNE,13,0.0,5.0,35,0.00,,---,0.00,VWS V14.00,2013-01-18 06:52:00,
2013-01-18 01:53:00,26.9,2.9,30.00,NNE,25,0.0,5.0,35,0.00,,---,0.00,VWS V14.00,2013-01-18 06:53:00,
2013-01-18 01:54:00,26.9,2.9,30.00,NNE,25,1.0,5.0,35,0.00,,---,0.00,VWS V14.00,2013-01-18 06:54:00,
2013-01-18 01:55:00,26.9,2.9,30.00,East,89,1.0,5.0,35,0.00,,---,0.00,VWS V14.00,2013-01-18 06:55:00,
2013-01-18 01:57:00,26.9,2.3,30.00,NNE,27,1.0,5.0,34,0.00,,---,0.00,VWS V14.00,2013-01-18 06:57:00,
2013-01-18 01:58:00,26.9,2.3,30.02,NNE,15,2.0,5.0,34,0.00,,---,0.00,VWS V14.00,2013-01-18 06:58:00,
2013-01-18 01:59:00,26.9,1.6,30.02,North,1,1.0,2.0,33,0.00,,---,0.00,VWS V14.00,2013-01-18 06:59:00,
2013-01-18 02:00:00,26.9,2.3,30.02,North,1,0.0,2.0,34,0.00,,---,0.00,VWS V14.00,2013-01-18 07:00:00,
2013-01-18 02:02:00,26.9,2.3,30.02,NE,43,0.0,4.0,34,0.00,,---,0.00,VWS V14.00,2013-01-18 07:02:00,
2013-01-18 02:03:00,26.9,2.3,30.02,NE,34,2.0,4.0,34,0.00,,---,0.00,VWS V14.00,2013-01-18 07:03:00,
2013-01-18 02:04:00,26.9,2.3,30.02,NE,35,0.0,4.0,34,0.00,,---,0.00,VWS V14.00,2013-01-18 07:04:00,
2013-01-18 02:05:00,26.9,2.3,30.02,NE,35,0.0,4.0,34,0.00,,---,0.00,VWS V14.00,2013-01-18 07:05:00,
2013-01-18 02:07:00,26.7,2.1,30.02,NE,35,1.0,4.0,34,0.00,,---,0.00,VWS V14.00,2013-01-18 07:07:00,
2013-01-18 02:09:00,26.7,1.5,30.02,NE,37,2.0,4.0,33,0.00,,---,0.00,VWS V14.00,2013-01-18 07:09:00,
2013-01-18 02:10:00,26.7,1.5,30.02,NE,37,0.0,4.0,33,0.00,,---,0.00,VWS V14.00,2013-01-18 07:10:00,
2013-01-18 02:12:00,26.7,2.1,30.02,NE,37,6.0,6.0,34,0.00,,---,0.00,VWS V14.00,2013-01-18 07:12:00,
2013-01-18 02:14:00,26.7,0.8,30.04,NNW,330,1.0,6.0,32,0.00,,---,0.00,VWS V14.00,2013-01-18 07:14:00,
2013-01-18 02:15:00,26.7,0.8,30.04,NNW,330,0.0,0.0,32,0.00,,---,0.00,VWS V14.00,2013-01-18 07:15:00,
2013-01-18 02:16:00,26.7,1.5,30.04,NNW,333,1.0,1.0,33,0.00,,---,0.00,VWS V14.00,2013-01-18 07:16:00,
2013-01-18 02:18:00,26.6,2.7,30.04,ENE,58,2.0,5.0,35,0.00,,---,0.00,VWS V14.00,2013-01-18 07:18:00,
2013-01-18 02:19:00,26.6,1.4,30.04,ENE,60,0.0,5.0,33,0.00,,---,0.00,VWS V14.00,2013-01-18 07:19:00,
2013-01-18 02:20:00,26.6,2.0,30.04,ENE,60,0.0,5.0,34,0.00,,---,0.00,VWS V14.00,2013-01-18 07:20:00,
2013-01-18 02:21:00,26.6,2.7,30.04,ENE,59,0.0,5.0,35,0.00,,---,0.00,VWS V14.00,2013-01-18 07:21:00,
2013-01-18 02:23:00,26.6,2.7,30.04,NNE,25,3.0,5.0,35,0.00,,---,0.00,VWS V14.00,2013-01-18 07:23:00,
2013-01-18 02:24:00,26.6,1.4,30.04,ENE,69,1.0,5.0,33,0.00,,---,0.00,VWS V14.00,2013-01-18 07:24:00,
2013-01-18 02:25:00,26.4,1.2,30.04,East,79,0.0,5.0,33,0.00,,---,0.00,VWS V14.00,2013-01-18 07:25:00,
2013-01-18 02:26:00,26.4,1.9,30.04,North,349,0.0,5.0,34,0.00,,---,0.00,VWS V14.00,2013-01-18 07:26:00,
2013-01-18 02:28:00,26.4,2.5,30.04,NE,51,1.0,5.0,35,0.00,,---,0.00,VWS V14.00,2013-01-18 07:28:00,
2013-01-18 02:29:00,26.4,1.9,30.03,NNE,22,0.0,5.0,34,0.00,,---,0.00,VWS V14.00,2013-01-18 07:29:00,
2013-01-18 02:30:00,26.4,1.9,30.03,NNE,13,0.0,4.0,34,0.00,,---,0.00,VWS V14.00,2013-01-18 07:30:00,
2013-01-18 02:31:00,26.4,1.9,30.03,NE,37,1.0,4.0,34,0.00,,---,0.00,VWS V14.00,2013-01-18 07:31:00,
2013-01-18 02:33:00,26.4,1.9,30.03,North,11,0.0,7.0,34,0.00,,---,0.00,VWS V14.00,2013-01-18 07:33:00,
2013-01-18 02:34:00,26.4,1.2,30.03,North,8,1.0,7.0,33,0.00,,---,0.00,VWS V14.00,2013-01-18 07:34:00,
2013-01-18 02:35:00,26.3,1.1,30.03,NNE,20,0.0,7.0,33,0.00,,---,0.00,VWS V14.00,2013-01-18 07:35:00,
2013-01-18 02:36:00,26.3,2.4,30.03,NW,318,2.0,7.0,35,0.00,,---,0.00,VWS V14.00,2013-01-18 07:36:00,
2013-01-18 02:38:00,26.3,1.1,30.03,North,349,0.0,7.0,33,0.00,,---,0.00,VWS V14.00,2013-01-18 07:38:00,
2013-01-18 02:39:00,26.3,1.1,30.03,North,349,1.0,7.0,33,0.00,,---,0.00,VWS V14.00,2013-01-18 07:39:00,
2013-01-18 02:40:00,26.3,2.4,30.03,North,357,3.0,7.0,35,0.00,,---,0.00,VWS V14.00,2013-01-18 07:40:00,
2013-01-18 02:41:00,26.3,1.1,30.03,NNW,336,3.0,7.0,33,0.00,,---,0.00,VWS V14.00,2013-01-18 07:41:00,
2013-01-18 02:43:00,26.3,1.1,30.03,NNE,29,3.0,7.0,33,0.00,,---,0.00,VWS V14.00,2013-01-18 07:43:00,
2013-01-18 02:44:00,26.1,1.6,30.05,ENE,66,0.0,1.0,34,0.00,,---,0.00,VWS V14.00,2013-01-18 07:44:00,
2013-01-18 02:45:00,26.1,0.9,30.05,NNE,25,2.0,3.0,33,0.00,,---,0.00,VWS V14.00,2013-01-18 07:45:00,
2013-01-18 02:46:00,26.1,0.9,30.05,NNW,335,3.0,3.0,33,0.00,,---,0.00,VWS V14.00,2013-01-18 07:46:00,
2013-01-18 02:48:00,26.1,1.6,30.05,NE,56,1.0,3.0,34,0.00,,---,0.00,VWS V14.00,2013-01-18 07:48:00,
2013-01-18 02:50:00,26.0,0.9,30.05,NE,39,2.0,5.0,33,0.00,,---,0.00,VWS V14.00,2013-01-18 07:50:00,
2013-01-18 02:51:00,26.0,0.9,30.05,NE,47,0.0,7.0,33,0.00,,---,0.00,VWS V14.00,2013-01-18 07:51:00,
2013-01-18 02:53:00,25.8,0.0,30.05,NNW,340,3.0,8.0,32,0.00,,---,0.00,VWS V14.00,2013-01-18 07:53:00,
2013-01-18 02:55:00,25.7,0.6,30.05,ENE,65,0.0,8.0,33,0.00,,---,0.00,VWS V14.00,2013-01-18 07:55:00,
2013-01-18 02:56:00,25.7,0.6,30.05,ENE,58,1.0,8.0,33,0.00,,---,0.00,VWS V14.00,2013-01-18 07:56:00,
2013-01-18 02:58:00,25.7,1.2,30.04,NE,41,0.0,8.0,34,0.00,,---,0.00,VWS V14.00,2013-01-18 07:58:00,
2013-01-18 03:00:00,25.6,1.8,30.04,NE,41,2.0,2.0,35,0.00,,---,0.00,VWS V14.00,2013-01-18 08:00:00,
2013-01-18 03:02:00,25.6,1.8,30.04,NE,35,2.0,4.0,35,0.00,,---,0.00,VWS V14.00,2013-01-18 08:02:00,
2013-01-18 03:04:00,25.4,1.6,30.04,North,7,2.0,4.0,35,0.00,,---,0.00,VWS V14.00,2013-01-18 08:04:00,
2013-01-18 03:05:00,25.4,1.6,30.04,NE,34,1.0,4.0,35,0.00,,---,0.00,VWS V14.00,2013-01-18 08:05:00,
2013-01-18 03:07:00,25.4,1.6,30.04,NNW,333,4.0,6.0,35,0.00,,---,0.00,VWS V14.00,2013-01-18 08:07:00,
2013-01-18 03:09:00,25.3,1.5,30.04,NNW,342,2.0,6.0,35,0.00,,---,0.00,VWS V14.00,2013-01-18 08:09:00,
2013-01-18 03:10:00,25.3,1.5,30.04,NNW,342,0.0,6.0,35,0.00,,---,0.00,VWS V14.00,2013-01-18 08:10:00,
2013-01-18 03:12:00,25.3,0.9,30.04,NNW,347,6.0,7.0,34,0.00,,---,0.00,VWS V14.00,2013-01-18 08:12:00,
2013-01-18 03:14:00,25.0,0.6,30.06,NE,52,1.0,2.0,34,0.00,,---,0.00,VWS V14.00,2013-01-18 08:14:00,
2013-01-18 03:15:00,25.0,0.6,30.06,North,3,3.0,5.0,34,0.00,,---,0.00,VWS V14.00,2013-01-18 08:15:00,
2013-01-18 03:17:00,24.8,1.0,30.06,ENE,57,1.0,6.0,35,0.00,,---,0.00,VWS V14.00,2013-01-18 08:17:00,
2013-01-18 03:19:00,24.7,1.0,30.06,North,0,2.0,6.0,35,0.00,,---,0.00,VWS V14.00,2013-01-18 08:19:00,
2013-01-18 03:20:00,24.7,0.3,30.06,NE,36,3.0,6.0,34,0.00,,---,0.00,VWS V14.00,2013-01-18 08:20:00,
2013-01-18 03:22:00,24.4,-1.9,30.06,North,356,1.0,6.0,31,0.00,,---,0.00,VWS V14.00,2013-01-18 08:22:00,
2013-01-18 03:24:00,24.1,-0.8,30.06,North,1,2.0,6.0,33,0.00,,---,0.00,VWS V14.00,2013-01-18 08:24:00,
2013-01-18 03:25:00,24.1,-1.5,30.06,NNE,19,4.0,6.0,32,0.00,,---,0.00,VWS V14.00,2013-01-18 08:25:00,
2013-01-18 03:27:00,23.8,-2.4,30.06,North,359,5.0,9.0,31,0.00,,---,0.00,VWS V14.00,2013-01-18 08:27:00,
2013-01-18 03:29:00,23.6,-2.6,30.03,North,353,4.0,4.0,31,0.00,,---,0.00,VWS V14.00,2013-01-18 08:29:00,
2013-01-18 03:30:00,23.5,-2.7,30.03,ENE,65,4.0,5.0,31,0.00,,---,0.00,VWS V14.00,2013-01-18 08:30:00,
2013-01-18 03:32:00,23.2,-3.6,30.03,NNE,19,3.0,11.0,30,0.00,,---,0.00,VWS V14.00,2013-01-18 08:32:00,
2013-01-18 03:34:00,23.0,-3.8,30.03,North,1,1.0,14.0,30,0.00,,---,0.00,VWS V14.00,2013-01-18 08:34:00,
2013-01-18 03:35:00,22.9,-3.2,30.03,NNE,29,0.0,14.0,31,0.00,,---,0.00,VWS V14.00,2013-01-18 08:35:00,
2013-01-18 03:37:00,22.9,-2.5,30.03,North,8,9.0,14.0,32,0.00,,---,0.00,VWS V14.00,2013-01-18 08:37:00,
2013-01-18 03:39:00,22.5,-4.2,30.03,NW,326,3.0,14.0,30,0.00,,---,0.00,VWS V14.00,2013-01-18 08:39:00,
2013-01-18 03:40:00,22.5,-4.2,30.03,North,359,0.0,14.0,30,0.00,,---,0.00,VWS V14.00,2013-01-18 08:40:00,
2013-01-18 03:42:00,22.4,-3.7,30.03,East,101,5.0,14.0,31,0.00,,---,0.00,VWS V14.00,2013-01-18 08:42:00,
2013-01-18 03:45:00,22.2,-4.5,30.04,North,353,5.0,5.0,30,0.00,,---,0.00,VWS V14.00,2013-01-18 08:45:00,
2013-01-18 03:48:00,22.2,-3.2,30.04,NW,311,2.0,10.0,32,0.00,,---,0.00,VWS V14.00,2013-01-18 08:48:00,
2013-01-18 03:50:00,22.1,-4.6,30.04,North,359,2.0,10.0,30,0.00,,---,0.00,VWS V14.00,2013-01-18 08:50:00,
2013-01-18 03:51:00,22.1,-4.6,30.04,North,1,4.0,10.0,30,0.00,,---,0.00,VWS V14.00,2013-01-18 08:51:00,
2013-01-18 03:53:00,21.9,-5.5,30.04,North,359,1.0,13.0,29,0.00,,---,0.00,VWS V14.00,2013-01-18 08:53:00,
2013-01-18 03:55:00,21.9,-6.2,30.04,NNW,339,1.0,13.0,28,0.00,,---,0.00,VWS V14.00,2013-01-18 08:55:00,
2013-01-18 03:56:00,21.8,-5.6,30.04,NNW,330,1.0,13.0,29,0.00,,---,0.00,VWS V14.00,2013-01-18 08:56:00,
2013-01-18 03:58:00,21.8,-2.9,30.04,NE,37,6.0,13.0,33,0.00,,---,0.00,VWS V14.00,2013-01-18 08:58:00,
2013-01-18 04:00:00,21.8,-6.3,30.07,NNE,23,0.0,4.0,28,0.00,,---,0.00,VWS V14.00,2013-01-18 09:00:00,
2013-01-18 04:01:00,21.8,-7.0,30.07,North,6,2.0,4.0,27,0.00,,---,0.00,VWS V14.00,2013-01-18 09:01:00,
2013-01-18 04:03:00,21.6,-6.5,30.07,NW,318,4.0,4.0,28,0.00,,---,0.00,VWS V14.00,2013-01-18 09:03:00,
2013-01-18 04:05:00,21.6,-5.7,30.07,NNW,330,5.0,5.0,29,0.00,,---,0.00,VWS V14.00,2013-01-18 09:05:00,
2013-01-18 04:06:00,21.6,-5.7,30.07,NNW,346,2.0,5.0,29,0.00,,---,0.00,VWS V14.00,2013-01-18 09:06:00,
2013-01-18 04:08:00,21.6,-5.0,30.07,NNW,346,0.0,5.0,30,0.00,,---,0.00,VWS V14.00,2013-01-18 09:08:00,
2013-01-18 04:10:00,21.6,-5.0,30.07,WNW,284,4.0,5.0,30,0.00,,---,0.00,VWS V14.00,2013-01-18 09:10:00,
2013-01-18 04:11:00,21.6,-5.0,30.07,WNW,288,1.0,5.0,30,0.00,,---,0.00,VWS V14.00,2013-01-18 09:11:00,
2013-01-18 04:13:00,21.4,-5.9,30.07,North,354,2.0,5.0,29,0.00,,---,0.00,VWS V14.00,2013-01-18 09:13:00,
2013-01-18 04:15:00,21.4,-6.6,30.06,North,4,0.0,5.0,28,0.00,,---,0.00,VWS V14.00,2013-01-18 09:15:00,
2013-01-18 04:16:00,21.4,-5.2,30.06,North,4,0.0,1.0,30,0.00,,---,0.00,VWS V14.00,2013-01-18 09:16:00,
2013-01-18 04:18:00,21.4,-5.9,30.06,North,354,1.0,3.0,29,0.00,,---,0.00,VWS V14.00,2013-01-18 09:18:00,
2013-01-18 04:21:00,21.3,-6.0,30.06,NNW,333,4.0,5.0,29,0.00,,---,0.00,VWS V14.00,2013-01-18 09:21:00,
2013-01-18 04:23:00,21.1,-4.8,30.06,NNW,341,0.0,5.0,31,0.00,,---,0.00,VWS V14.00,2013-01-18 09:23:00,
2013-01-18 04:26:00,21.1,-5.5,30.06,NNE,16,2.0,7.0,30,0.00,,---,0.00,VWS V14.00,2013-01-18 09:26:00,
2013-01-18 04:28:00,21.1,-4.8,30.06,NNE,20,1.0,7.0,31,0.00,,---,0.00,VWS V14.00,2013-01-18 09:28:00,
2013-01-18 04:30:00,21.1,-4.1,30.06,NNE,24,2.0,7.0,32,0.00,,---,0.00,VWS V14.00,2013-01-18 09:30:00,
2013-01-18 04:31:00,21.0,-4.9,30.06,NNW,339,1.0,3.0,31,0.00,,---,0.00,VWS V14.00,2013-01-18 09:31:00,
2013-01-18 04:33:00,21.0,-4.2,30.06,NNE,13,2.0,6.0,32,0.00,,---,0.00,VWS V14.00,2013-01-18 09:33:00,
2013-01-18 04:36:00,20.8,-3.8,30.06,NE,43,0.0,6.0,33,0.00,,---,0.00,VWS V14.00,2013-01-18 09:36:00,
2013-01-18 04:38:00,20.8,-3.8,30.06,NE,55,1.0,6.0,33,0.00,,---,0.00,VWS V14.00,2013-01-18 09:38:00,
2013-01-18 04:41:00,20.6,-3.3,30.06,NW,326,4.0,8.0,34,0.00,,---,0.00,VWS V14.00,2013-01-18 09:41:00,
2013-01-18 04:42:00,20.6,-3.9,30.06,NW,323,3.0,8.0,33,0.00,,---,0.00,VWS V14.00,2013-01-18 09:42:00,
2013-01-18 04:43:00,20.6,-3.9,30.06,NNW,335,0.0,8.0,33,0.00,,---,0.00,VWS V14.00,2013-01-18 09:43:00,
2013-01-18 04:45:00,20.6,-2.7,30.09,North,350,5.0,8.0,35,0.00,,---,0.00,VWS V14.00,2013-01-18 09:45:00,
2013-01-18 04:46:00,20.6,-3.9,30.09,North,354,2.0,6.0,33,0.00,,---,0.00,VWS V14.00,2013-01-18 09:46:00,
2013-01-18 04:47:00,20.6,-3.9,30.09,North,354,2.0,6.0,33,0.00,,---,0.00,VWS V14.00,2013-01-18 09:47:00,
2013-01-18 04:48:00,20.6,-3.3,30.09,North,4,1.0,6.0,34,0.00,,---,0.00,VWS V14.00,2013-01-18 09:48:00,
2013-01-18 04:52:00,20.5,-2.8,30.09,NNE,27,2.0,6.0,35,0.00,,---,0.00,VWS V14.00,2013-01-18 09:52:00,
2013-01-18 04:53:00,20.5,-2.8,30.09,North,352,4.0,6.0,35,0.00,,---,0.00,VWS V14.00,2013-01-18 09:53:00,
2013-01-18 04:57:00,20.3,-2.4,30.09,North,8,0.0,6.0,36,0.00,,---,0.00,VWS V14.00,2013-01-18 09:57:00,
2013-01-18 04:58:00,20.2,-2.5,30.09,NE,56,2.0,6.0,36,0.00,,---,0.00,VWS V14.00,2013-01-18 09:58:00,
2013-01-18 05:00:00,20.2,-2.5,30.09,NE,56,0.0,6.0,36,0.00,,---,0.00,VWS V14.00,2013-01-18 10:00:00,
2013-01-18 05:02:00,20.0,-2.1,30.09,North,359,1.0,3.0,37,0.00,,---,0.00,VWS V14.00,2013-01-18 10:02:00,
2013-01-18 05:03:00,19.9,-2.7,30.09,NNE,29,0.0,7.0,36,0.00,,---,0.00,VWS V14.00,2013-01-18 10:03:00,
2013-01-18 05:07:00,19.9,-1.6,30.09,NNW,345,4.0,7.0,38,0.00,,---,0.00,VWS V14.00,2013-01-18 10:07:00,
2013-01-18 05:08:00,19.7,-2.3,30.09,NNW,346,1.0,7.0,37,0.00,,---,0.00,VWS V14.00,2013-01-18 10:08:00,
2013-01-18 05:12:00,19.7,-3.5,30.09,NE,49,4.0,11.0,35,0.00,,---,0.00,VWS V14.00,2013-01-18 10:12:00,
2013-01-18 05:14:00,19.5,-3.7,30.11,NNE,23,1.0,11.0,35,0.00,,---,0.00,VWS V14.00,2013-01-18 10:14:00,
2013-01-18 05:15:00,19.5,-3.7,30.11,NNE,22,1.0,11.0,35,0.00,,---,0.00,VWS V14.00,2013-01-18 10:15:00,
2013-01-18 05:17:00,19.4,-3.2,30.11,NNW,345,3.0,5.0,36,0.00,,---,0.00,VWS V14.00,2013-01-18 10:17:00,
2013-01-18 05:19:00,19.4,-4.4,30.11,North,359,1.0,5.0,34,0.00,,---,0.00,VWS V14.00,2013-01-18 10:19:00,
2013-01-18 05:22:00,19.2,-3.4,30.11,NNW,345,1.0,5.0,36,0.00,,---,0.00,VWS V14.00,2013-01-18 10:22:00,
2013-01-18 05:24:00,19.2,-4.0,30.11,NNW,342,1.0,5.0,35,0.00,,---,0.00,VWS V14.00,2013-01-18 10:24:00,
2013-01-18 05:27:00,19.1,-4.0,30.11,NNW,346,2.0,5.0,35,0.00,,---,0.00,VWS V14.00,2013-01-18 10:27:00,
2013-01-18 05:28:00,19.1,-4.0,30.11,NNW,346,0.0,5.0,35,0.00,,---,0.00,VWS V14.00,2013-01-18 10:28:00,
2013-01-18 05:29:00,19.1,-4.7,30.11,NNW,346,0.0,5.0,34,0.00,,---,0.00,VWS V14.00,2013-01-18 10:29:00,
2013-01-18 05:30:00,19.1,-4.7,30.11,NNW,346,1.0,5.0,34,0.00,,---,0.00,VWS V14.00,2013-01-18 10:30:00,
2013-01-18 05:32:00,18.9,-4.2,30.11,NNW,340,0.0,5.0,35,0.00,,---,0.00,VWS V14.00,2013-01-18 10:32:00,
2013-01-18 05:33:00,18.9,-4.2,30.11,NNW,340,0.0,5.0,35,0.00,,---,0.00,VWS V14.00,2013-01-18 10:33:00,
2013-01-18 05:34:00,18.9,-4.2,30.11,NNW,338,3.0,5.0,35,0.00,,---,0.00,VWS V14.00,2013-01-18 10:34:00,
2013-01-18 05:37:00,18.8,-3.7,30.11,North,2,5.0,7.0,36,0.00,,---,0.00,VWS V14.00,2013-01-18 10:37:00,
2013-01-18 05:38:00,18.8,-3.7,30.11,NNE,14,4.0,7.0,36,0.00,,---,0.00,VWS V14.00,2013-01-18 10:38:00,
2013-01-18 05:39:00,18.8,-3.7,30.11,NE,51,1.0,7.0,36,0.00,,---,0.00,VWS V14.00,2013-01-18 10:39:00,
2013-01-18 05:42:00,18.6,-3.3,30.11,North,1,2.0,7.0,37,0.00,,---,0.00,VWS V14.00,2013-01-18 10:42:00,
2013-01-18 05:43:00,18.6,-3.3,30.11,NNE,16,6.0,7.0,37,0.00,,---,0.00,VWS V14.00,2013-01-18 10:43:00,
2013-01-18 05:44:00,18.6,-3.9,30.12,NNE,18,2.0,7.0,36,0.00,,---,0.00,VWS V14.00,2013-01-18 10:44:00,
2013-01-18 05:45:00,18.6,-3.9,30.12,NNE,18,2.0,7.0,36,0.00,,---,0.00,VWS V14.00,2013-01-18 10:45:00,
2013-01-18 05:48:00,18.4,-2.4,30.12,North,8,0.0,5.0,39,0.00,,---,0.00,VWS V14.00,2013-01-18 10:48:00,
2013-01-18 05:49:00,18.4,-3.0,30.12,North,359,0.0,5.0,38,0.00,,---,0.00,VWS V14.00,2013-01-18 10:49:00,
2013-01-18 05:53:00,18.3,-3.6,30.12,NNW,337,6.0,6.0,37,0.00,,---,0.00,VWS V14.00,2013-01-18 10:53:00,
2013-01-18 05:54:00,18.1,-4.9,30.12,ENE,67,0.0,6.0,35,0.00,,---,0.00,VWS V14.00,2013-01-18 10:54:00,
2013-01-18 05:58:00,18.0,-4.4,30.12,NE,37,0.0,11.0,36,0.00,,---,0.00,VWS V14.00,2013-01-18 10:58:00,
2013-01-18 06:00:00,18.0,-5.0,30.13,NNE,13,2.0,7.0,35,0.00,,---,0.00,VWS V14.00,2013-01-18 11:00:00,
2013-01-18 06:03:00,17.8,-5.2,30.13,North,5,1.0,9.0,35,0.00,,---,0.00,VWS V14.00,2013-01-18 11:03:00,
2013-01-18 06:04:00,17.8,-5.2,30.13,North,5,2.0,9.0,35,0.00,,---,0.00,VWS V14.00,2013-01-18 11:04:00,
2013-01-18 06:05:00,17.8,-5.2,30.13,NE,49,0.0,9.0,35,0.00,,---,0.00,VWS V14.00,2013-01-18 11:05:00,
2013-01-18 06:08:00,17.7,-4.7,30.13,North,6,0.0,9.0,36,0.00,,---,0.00,VWS V14.00,2013-01-18 11:08:00,
2013-01-18 06:09:00,17.7,-4.7,30.13,North,6,0.0,9.0,36,0.00,,---,0.00,VWS V14.00,2013-01-18 11:09:00,
2013-01-18 06:10:00,17.7,-4.1,30.13,North,6,0.0,9.0,37,0.00,,---,0.00,VWS V14.00,2013-01-18 11:10:00,
2013-01-18 06:13:00,17.5,-3.8,30.13,NW,311,4.0,9.0,38,0.00,,---,0.00,VWS V14.00,2013-01-18 11:13:00,
2013-01-18 06:14:00,17.5,-4.3,30.15,SE,130,0.0,9.0,37,0.00,,---,0.00,VWS V14.00,2013-01-18 11:14:00,
2013-01-18 06:15:00,17.5,-3.8,30.15,NNW,333,0.0,3.0,38,0.00,,---,0.00,VWS V14.00,2013-01-18 11:15:00,
2013-01-18 06:18:00,17.3,-3.9,30.15,NNW,333,0.0,3.0,38,0.00,,---,0.00,VWS V14.00,2013-01-18 11:18:00,
2013-01-18 06:19:00,17.3,-3.9,30.15,NNW,333,0.0,3.0,38,0.00,,---,0.00,VWS V14.00,2013-01-18 11:19:00,
2013-01-18 06:20:00,17.3,-4.5,30.15,NNE,23,6.0,6.0,37,0.00,,---,0.00,VWS V14.00,2013-01-18 11:20:00,
2013-01-18 06:23:00,17.2,-4.6,30.15,NNW,339,2.0,6.0,37,0.00,,---,0.00,VWS V14.00,2013-01-18 11:23:00,
2013-01-18 06:24:00,17.2,-4.6,30.15,NNW,339,0.0,6.0,37,0.00,,---,0.00,VWS V14.00,2013-01-18 11:24:00,
2013-01-18 06:25:00,17.2,-4.0,30.15,NNW,339,0.0,6.0,38,0.00,,---,0.00,VWS V14.00,2013-01-18 11:25:00,
2013-01-18 06:28:00,17.0,-4.2,30.15,NNW,339,0.0,6.0,38,0.00,,---,0.00,VWS V14.00,2013-01-18 11:28:00,
2013-01-18 06:30:00,17.0,-4.2,30.17,North,359,4.0,4.0,38,0.00,,---,0.00,VWS V14.00,2013-01-18 11:30:00,
2013-01-18 06:33:00,16.9,-4.3,30.17,NNE,17,1.0,4.0,38,0.00,,---,0.00,VWS V14.00,2013-01-18 11:33:00,
2013-01-18 06:35:00,16.9,-4.9,30.17,North,356,0.0,4.0,37,0.00,,---,0.00,VWS V14.00,2013-01-18 11:35:00,
2013-01-18 06:38:00,16.9,-4.3,30.17,NNE,18,1.0,4.0,38,0.00,,---,0.00,VWS V14.00,2013-01-18 11:38:00,
2013-01-18 06:40:00,16.7,-5.0,30.17,NNW,335,1.0,4.0,37,0.00,,---,0.00,VWS V14.00,2013-01-18 11:40:00,
2013-01-18 06:41:00,16.7,-5.0,30.17,NNE,13,2.0,4.0,37,0.00,,---,0.00,VWS V14.00,2013-01-18 11:41:00,
2013-01-18 06:43:00,16.7,-5.0,30.18,NNE,20,2.0,4.0,37,0.00,,---,0.00,VWS V14.00,2013-01-18 11:43:00,
2013-01-18 06:45:00,16.7,-5.0,30.18,NNW,345,0.0,1.0,37,0.00,,---,0.00,VWS V14.00,2013-01-18 11:45:00,
2013-01-18 06:46:00,16.7,-5.0,30.18,NE,44,0.0,4.0,37,0.00,,---,0.00,VWS V14.00,2013-01-18 11:46:00,
2013-01-18 06:48:00,16.5,-5.2,30.18,NNE,15,3.0,6.0,37,0.00,,---,0.00,VWS V14.00,2013-01-18 11:48:00,
2013-01-18 06:50:00,16.5,-5.2,30.18,NNW,328,1.0,6.0,37,0.00,,---,0.00,VWS V14.00,2013-01-18 11:50:00,
2013-01-18 06:51:00,16.5,-5.2,30.18,NNW,332,2.0,6.0,37,0.00,,---,0.00,VWS V14.00,2013-01-18 11:51:00,
2013-01-18 06:53:00,16.5,-4.7,30.18,NNW,327,1.0,6.0,38,0.00,,---,0.00,VWS V14.00,2013-01-18 11:53:00,
2013-01-18 06:54:00,16.5,-4.7,30.18,NNW,338,0.0,6.0,38,0.00,,---,0.00,VWS V14.00,2013-01-18 11:54:00,
2013-01-18 06:55:00,16.5,-5.2,30.18,NNW,340,2.0,6.0,37,0.00,,---,0.00,VWS V14.00,2013-01-18 11:55:00,
2013-01-18 06:56:00,16.4,-5.3,30.18,NNW,334,3.0,6.0,37,0.00,,---,0.00,VWS V14.00,2013-01-18 11:56:00,
2013-01-18 06:58:00,16.4,-5.3,30.19,North,1,0.0,6.0,37,0.00,,---,0.00,VWS V14.00,2013-01-18 11:58:00,
2013-01-18 06:59:00,16.4,-5.3,30.19,NNW,341,1.0,6.0,37,0.00,,---,0.00,VWS V14.00,2013-01-18 11:59:00,
2013-01-18 07:00:00,16.4,-5.3,30.19,NNW,342,2.0,2.0,37,0.00,,---,0.00,VWS V14.00,2013-01-18 12:00:00,
2013-01-18 07:01:00,16.4,-4.8,30.19,NNW,341,0.0,2.0,38,0.00,,---,0.00,VWS V14.00,2013-01-18 12:01:00,
2013-01-18 07:03:00,16.2,-4.9,30.19,NE,40,0.0,3.0,38,0.00,,---,0.00,VWS V14.00,2013-01-18 12:03:00,
2013-01-18 07:04:00,16.2,-4.9,30.19,NW,322,3.0,3.0,38,0.00,,---,0.00,VWS V14.00,2013-01-18 12:04:00,
2013-01-18 07:05:00,16.2,-4.9,30.19,NNW,328,0.0,5.0,38,0.00,,---,0.00,VWS V14.00,2013-01-18 12:05:00,
2013-01-18 07:07:00,16.2,-4.9,30.19,NNW,328,0.0,5.0,38,0.00,,---,0.00,VWS V14.00,2013-01-18 12:07:00,
2013-01-18 07:08:00,16.1,-5.0,30.19,NNW,328,0.0,5.0,38,0.00,,---,0.00,VWS V14.00,2013-01-18 12:08:00,
2013-01-18 07:09:00,16.1,-5.0,30.19,NNW,328,0.0,5.0,38,0.00,,---,0.00,VWS V14.00,2013-01-18 12:09:00,
2013-01-18 07:11:00,16.1,-4.5,30.19,NNW,328,3.0,5.0,39,0.00,,---,0.00,VWS V14.00,2013-01-18 12:11:00,
2013-01-18 07:12:00,16.1,-5.0,30.19,NNW,328,0.0,5.0,38,0.00,,---,0.00,VWS V14.00,2013-01-18 12:12:00,
2013-01-18 07:13:00,16.1,-5.0,30.20,NNW,328,0.0,5.0,38,0.00,,---,0.00,VWS V14.00,2013-01-18 12:13:00,
2013-01-18 07:14:00,16.1,-5.0,30.20,ENE,57,3.0,5.0,38,0.00,,---,0.00,VWS V14.00,2013-01-18 12:14:00,
2013-01-18 07:15:00,16.1,-5.0,30.20,ENE,57,3.0,5.0,38,0.00,,---,0.00,VWS V14.00,2013-01-18 12:15:00,
2013-01-18 07:16:00,16.1,-5.0,30.20,NNW,334,5.0,6.0,38,0.00,,---,0.00,VWS V14.00,2013-01-18 12:16:00,
2013-01-18 07:17:00,15.9,-5.2,30.20,North,358,2.0,6.0,38,0.00,,---,0.00,VWS V14.00,2013-01-18 12:17:00,
2013-01-18 07:19:00,15.9,-5.2,30.20,North,0,4.0,6.0,38,0.00,,---,0.00,VWS V14.00,2013-01-18 12:19:00,
2013-01-18 07:21:00,15.9,-4.7,30.20,NNW,337,0.0,6.0,39,0.00,,---,0.00,VWS V14.00,2013-01-18 12:21:00,
2013-01-18 07:22:00,15.9,-5.2,30.20,NNW,332,0.0,6.0,38,0.00,,---,0.00,VWS V14.00,2013-01-18 12:22:00,
2013-01-18 07:24:00,15.9,-5.2,30.20,North,350,2.0,6.0,38,0.00,,---,0.00,VWS V14.00,2013-01-18 12:24:00,
2013-01-18 07:26:00,15.9,-5.2,30.20,NNW,333,1.0,6.0,38,0.00,,---,0.00,VWS V14.00,2013-01-18 12:26:00,
2013-01-18 07:27:00,15.9,-4.7,30.20,NNW,340,0.0,6.0,39,0.00,,---,0.00,VWS V14.00,2013-01-18 12:27:00,
2013-01-18 07:29:00,15.7,-4.8,30.21,NNW,343,2.0,6.0,39,0.00,,---,0.00,VWS V14.00,2013-01-18 12:29:00,
2013-01-18 07:30:00,15.7,-5.4,30.21,NNW,337,3.0,6.0,38,0.00,,---,0.00,VWS V14.00,2013-01-18 12:30:00,
2013-01-18 07:31:00,15.7,-5.4,30.21,NNW,331,1.0,5.0,38,0.00,,---,0.00,VWS V14.00,2013-01-18 12:31:00,
2013-01-18 07:32:00,15.7,-5.4,30.21,NNW,329,0.0,5.0,38,0.00,,---,0.00,VWS V14.00,2013-01-18 12:32:00,
2013-01-18 07:34:00,15.7,-5.4,30.21,NNW,338,0.0,5.0,38,0.00,,---,0.00,VWS V14.00,2013-01-18 12:34:00,
2013-01-18 07:36:00,15.7,-4.8,30.21,North,352,1.0,5.0,39,0.00,,---,0.00,VWS V14.00,2013-01-18 12:36:00,
2013-01-18 07:37:00,15.7,-4.8,30.21,North,352,0.0,5.0,39,0.00,,---,0.00,VWS V14.00,2013-01-18 12:37:00,
2013-01-18 07:39:00,15.7,-4.3,30.21,North,359,0.0,5.0,40,0.00,,---,0.00,VWS V14.00,2013-01-18 12:39:00,
2013-01-18 07:40:00,15.7,-4.3,30.21,NNW,338,2.0,5.0,40,0.00,,---,0.00,VWS V14.00,2013-01-18 12:40:00,
2013-01-18 07:41:00,15.7,-4.8,30.21,North,359,3.0,5.0,39,0.00,,---,0.00,VWS V14.00,2013-01-18 12:41:00,
2013-01-18 07:42:00,15.7,-4.8,30.21,NNW,347,3.0,7.0,39,0.00,,---,0.00,VWS V14.00,2013-01-18 12:42:00,
2013-01-18 07:44:00,15.7,-4.8,30.23,North,358,1.0,7.0,39,0.00,,---,0.00,VWS V14.00,2013-01-18 12:44:00,
2013-01-18 07:45:00,15.7,-4.8,30.23,NW,323,0.0,5.0,39,0.00,,---,0.00,VWS V14.00,2013-01-18 12:45:00,
2013-01-18 07:46:00,15.7,-4.8,30.23,North,3,1.0,5.0,39,0.00,,---,0.00,VWS V14.00,2013-01-18 12:46:00,
2013-01-18 07:47:00,15.7,-4.3,30.23,North,1,0.0,5.0,40,0.00,,---,0.00,VWS V14.00,2013-01-18 12:47:00,
2013-01-18 07:49:00,15.7,-4.3,30.23,NW,323,1.0,5.0,40,0.00,,---,0.00,VWS V14.00,2013-01-18 12:49:00,
2013-01-18 07:50:00,15.7,-4.3,30.23,North,349,1.0,5.0,40,0.00,,---,0.00,VWS V14.00,2013-01-18 12:50:00,
2013-01-18 07:51:00,15.7,-4.3,30.23,North,349,1.0,5.0,40,0.00,,---,0.00,VWS V14.00,2013-01-18 12:51:00,
2013-01-18 07:53:00,15.7,-4.3,30.23,NE,44,0.0,5.0,40,0.00,,---,0.00,VWS V14.00,2013-01-18 12:53:00,
2013-01-18 07:54:00,15.7,-3.8,30.23,North,354,2.0,5.0,41,0.00,,---,0.00,VWS V14.00,2013-01-18 12:54:00,
2013-01-18 07:55:00,15.7,-3.8,30.23,NW,321,3.0,5.0,41,0.00,,---,0.00,VWS V14.00,2013-01-18 12:55:00,
2013-01-18 07:56:00,15.7,-4.3,30.23,NNW,328,3.0,5.0,40,0.00,,---,0.00,VWS V14.00,2013-01-18 12:56:00,
2013-01-18 07:58:00,15.7,-3.8,30.23,NNW,347,2.0,5.0,41,0.00,,---,0.00,VWS V14.00,2013-01-18 12:58:00,
2013-01-18 07:59:00,15.7,-4.3,30.24,NNW,339,2.0,5.0,40,0.00,,---,0.00,VWS V14.00,2013-01-18 12:59:00,
2013-01-18 08:00:00,15.6,-4.4,30.24,NNW,338,0.0,1.0,40,0.00,,---,0.00,VWS V14.00,2013-01-18 13:00:00,
2013-01-18 08:01:00,15.6,-4.4,30.24,NW,326,3.0,3.0,40,0.00,,---,0.00,VWS V14.00,2013-01-18 13:01:00,
2013-01-18 08:03:00,15.6,-4.9,30.24,NW,321,3.0,10.0,39,0.00,,---,0.00,VWS V14.00,2013-01-18 13:03:00,
2013-01-18 08:04:00,15.6,-4.9,30.24,NW,321,0.0,10.0,39,0.00,,---,0.00,VWS V14.00,2013-01-18 13:04:00,
2013-01-18 08:05:00,15.6,-4.9,30.24,NW,321,0.0,10.0,39,0.00,,---,0.00,VWS V14.00,2013-01-18 13:05:00,
2013-01-18 08:06:00,15.6,-3.9,30.24,North,354,3.0,10.0,41,0.00,,---,0.00,VWS V14.00,2013-01-18 13:06:00,
2013-01-18 08:08:00,15.6,-4.4,30.24,North,1,3.0,10.0,40,0.00,,---,0.00,VWS V14.00,2013-01-18 13:08:00,
2013-01-18 08:09:00,15.6,-4.9,30.24,NW,323,9.0,10.0,39,0.00,,---,0.00,VWS V14.00,2013-01-18 13:09:00,
2013-01-18 08:10:00,15.4,-5.1,30.24,North,1,5.0,10.0,39,0.00,,---,0.00,VWS V14.00,2013-01-18 13:10:00,
2013-01-18 08:11:00,15.4,-4.6,30.24,North,358,1.0,10.0,40,0.00,,---,0.00,VWS V14.00,2013-01-18 13:11:00,
2013-01-18 08:13:00,15.4,-4.6,30.25,NNE,24,3.0,10.0,40,0.00,,---,0.00,VWS V14.00,2013-01-18 13:13:00,
2013-01-18 08:14:00,15.4,-4.6,30.25,North,354,2.0,10.0,40,0.00,,---,0.00,VWS V14.00,2013-01-18 13:14:00,
2013-01-18 08:15:00,15.4,-4.6,30.25,NNW,345,0.0,4.0,40,0.00,,---,0.00,VWS V14.00,2013-01-18 13:15:00,
2013-01-18 08:16:00,15.4,-5.1,30.25,NE,55,0.0,4.0,39,0.00,,---,0.00,VWS V14.00,2013-01-18 13:16:00,
2013-01-18 08:18:00,15.4,-4.1,30.25,NNW,337,1.0,4.0,41,0.00,,---,0.00,VWS V14.00,2013-01-18 13:18:00,
2013-01-18 08:19:00,15.4,-4.6,30.25,NNW,328,2.0,4.0,40,0.00,,---,0.00,VWS V14.00,2013-01-18 13:19:00,
2013-01-18 08:20:00,15.4,-4.6,30.25,North,0,1.0,4.0,40,0.00,,---,0.00,VWS V14.00,2013-01-18 13:20:00,
2013-01-18 08:21:00,15.4,-4.1,30.25,North,355,1.0,4.0,41,0.00,,---,0.00,VWS V14.00,2013-01-18 13:21:00,
2013-01-18 08:23:00,15.4,-5.1,30.25,North,1,2.0,6.0,39,0.00,,---,0.00,VWS V14.00,2013-01-18 13:23:00,
2013-01-18 08:24:00,15.4,-4.6,30.25,NW,323,1.0,6.0,40,0.00,,---,0.00,VWS V14.00,2013-01-18 13:24:00,
2013-01-18 08:26:00,15.4,-4.1,30.25,North,359,4.0,6.0,41,0.00,,---,0.00,VWS V14.00,2013-01-18 13:26:00,
2013-01-18 08:27:00,15.4,-4.1,30.25,North,1,0.0,6.0,41,0.00,,---,0.00,VWS V14.00,2013-01-18 13:27:00,
2013-01-18 08:29:00,15.4,-4.1,30.26,North,349,1.0,6.0,41,0.00,,---,0.00,VWS V14.00,2013-01-18 13:29:00,
2013-01-18 08:30:00,15.4,-4.6,30.26,North,349,2.0,4.0,40,0.00,,---,0.00,VWS V14.00,2013-01-18 13:30:00,
2013-01-18 08:31:00,15.4,-4.1,30.26,NNW,328,1.0,4.0,41,0.00,,---,0.00,VWS V14.00,2013-01-18 13:31:00,
2013-01-18 08:32:00,15.4,-4.1,30.26,NNW,330,2.0,5.0,41,0.00,,---,0.00,VWS V14.00,2013-01-18 13:32:00,
2013-01-18 08:34:00,15.6,-4.4,30.26,WNW,302,1.0,6.0,40,0.00,,---,0.00,VWS V14.00,2013-01-18 13:34:00,
2013-01-18 08:35:00,15.6,-4.4,30.26,North,0,3.0,6.0,40,0.00,,---,0.00,VWS V14.00,2013-01-18 13:35:00,
2013-01-18 08:36:00,15.4,-4.6,30.26,NNW,342,1.0,6.0,40,0.00,,---,0.00,VWS V14.00,2013-01-18 13:36:00,
2013-01-18 08:37:00,15.4,-5.1,30.26,NNW,335,5.0,6.0,39,0.00,,---,0.00,VWS V14.00,2013-01-18 13:37:00,
2013-01-18 08:39:00,15.6,-4.4,30.26,NNW,332,3.0,6.0,40,0.00,,---,0.00,VWS V14.00,2013-01-18 13:39:00,
2013-01-18 08:40:00,15.6,-4.4,30.26,North,359,3.0,10.0,40,0.00,,---,0.00,VWS V14.00,2013-01-18 13:40:00,
2013-01-18 08:41:00,15.6,-4.9,30.26,NNW,346,1.0,10.0,39,0.00,,---,0.00,VWS V14.00,2013-01-18 13:41:00,
2013-01-18 08:42:00,15.6,-4.9,30.26,NNW,344,1.0,10.0,39,0.00,,---,0.00,VWS V14.00,2013-01-18 13:42:00,
2013-01-18 08:44:00,15.6,-4.9,30.27,NNW,348,0.0,10.0,39,0.00,,---,0.00,VWS V14.00,2013-01-18 13:44:00,
2013-01-18 08:45:00,15.7,-4.8,30.27,North,356,1.0,10.0,39,0.00,,---,0.00,VWS V14.00,2013-01-18 13:45:00,
2013-01-18 08:47:00,15.7,-4.8,30.27,NNW,328,0.0,10.0,39,0.00,,---,0.00,VWS V14.00,2013-01-18 13:47:00,
2013-01-18 08:49:00,15.7,-4.3,30.27,South,190,0.0,10.0,40,0.00,,---,0.00,VWS V14.00,2013-01-18 13:49:00,
2013-01-18 08:50:00,15.9,-4.1,30.27,NNW,331,9.0,10.0,40,0.00,,---,0.00,VWS V14.00,2013-01-18 13:50:00,
2013-01-18 08:52:00,15.9,-5.2,30.27,North,349,1.0,10.0,38,0.00,,---,0.00,VWS V14.00,2013-01-18 13:52:00,
2013-01-18 08:54:00,15.9,-5.8,30.27,North,359,0.0,10.0,37,0.00,,---,0.00,VWS V14.00,2013-01-18 13:54:00,
2013-01-18 08:55:00,15.9,-5.2,30.27,NNW,333,3.0,10.0,38,0.00,,---,0.00,VWS V14.00,2013-01-18 13:55:00,
2013-01-18 08:57:00,15.9,-6.3,30.27,North,0,4.0,10.0,36,0.00,,---,0.00,VWS V14.00,2013-01-18 13:57:00,
2013-01-18 08:59:00,15.9,-6.9,30.28,NNW,337,4.0,10.0,35,0.00,,---,0.00,VWS V14.00,2013-01-18 13:59:00,
2013-01-18 09:00:00,15.9,-6.3,30.28,NNE,21,4.0,5.0,36,0.00,,---,0.00,VWS V14.00,2013-01-18 14:00:00,
2013-01-18 09:02:00,16.1,-5.6,30.28,NW,320,6.0,7.0,37,0.00,,---,0.00,VWS V14.00,2013-01-18 14:02:00,
2013-01-18 09:03:00,16.1,-5.6,30.28,NNW,346,2.0,7.0,37,0.00,,---,0.00,VWS V14.00,2013-01-18 14:03:00,
2013-01-18 09:04:00,16.1,-6.7,30.28,North,353,4.0,9.0,35,0.00,,---,0.00,VWS V14.00,2013-01-18 14:04:00,
2013-01-18 09:05:00,16.1,-6.7,30.28,NNW,340,3.0,9.0,35,0.00,,---,0.00,VWS V14.00,2013-01-18 14:05:00,
2013-01-18 09:07:00,16.1,-6.7,30.28,North,352,1.0,9.0,35,0.00,,---,0.00,VWS V14.00,2013-01-18 14:07:00,
2013-01-18 09:08:00,16.1,-6.7,30.28,North,352,0.0,9.0,35,0.00,,---,0.00,VWS V14.00,2013-01-18 14:08:00,
2013-01-18 09:09:00,16.2,-6.1,30.28,NNW,334,1.0,9.0,36,0.00,,---,0.00,VWS V14.00,2013-01-18 14:09:00,
2013-01-18 09:10:00,16.2,-7.8,30.28,NW,326,4.0,9.0,33,0.00,,---,0.00,VWS V14.00,2013-01-18 14:10:00,
2013-01-18 09:12:00,16.2,-8.5,30.28,SW,236,0.0,10.0,32,0.00,,---,0.00,VWS V14.00,2013-01-18 14:12:00,
2013-01-18 09:13:00,16.2,-8.5,30.28,North,1,3.0,10.0,32,0.00,,---,0.00,VWS V14.00,2013-01-18 14:13:00,
2013-01-18 09:14:00,16.4,-7.7,30.28,North,1,4.0,10.0,33,0.00,,---,0.00,VWS V14.00,2013-01-18 14:14:00,
2013-01-18 09:15:00,16.4,-8.3,30.28,North,1,0.0,5.0,32,0.00,,---,0.00,VWS V14.00,2013-01-18 14:15:00,
2013-01-18 09:17:00,16.4,-8.3,30.28,North,8,0.0,5.0,32,0.00,,---,0.00,VWS V14.00,2013-01-18 14:17:00,
2013-01-18 09:18:00,16.4,-7.7,30.28,NNW,336,4.0,5.0,33,0.00,,---,0.00,VWS V14.00,2013-01-18 14:18:00,
2013-01-18 09:19:00,16.5,-8.2,30.28,WNW,299,1.0,5.0,32,0.00,,---,0.00,VWS V14.00,2013-01-18 14:19:00,
2013-01-18 09:21:00,16.5,-8.9,30.28,NNW,345,2.0,6.0,31,0.00,,---,0.00,VWS V14.00,2013-01-18 14:21:00,
2013-01-18 09:22:00,16.7,-8.0,30.28,NNW,328,3.0,6.0,32,0.00,,---,0.00,VWS V14.00,2013-01-18 14:22:00,
2013-01-18 09:24:00,16.7,-8.0,30.28,North,349,3.0,10.0,32,0.00,,---,0.00,VWS V14.00,2013-01-18 14:24:00,
2013-01-18 09:26:00,16.7,-9.3,30.28,North,4,2.0,10.0,30,0.00,,---,0.00,VWS V14.00,2013-01-18 14:26:00,
2013-01-18 09:28:00,16.7,-9.3,30.28,North,10,2.0,10.0,30,0.00,,---,0.00,VWS V14.00,2013-01-18 14:28:00,
2013-01-18 09:29:00,16.7,-10.0,30.29,NNW,328,6.0,10.0,29,0.00,,---,0.00,VWS V14.00,2013-01-18 14:29:00,
2013-01-18 09:30:00,16.7,-10.0,30.29,NNW,328,6.0,10.0,29,0.00,,---,0.00,VWS V14.00,2013-01-18 14:30:00,
2013-01-18 09:31:00,16.9,-9.2,30.29,NW,326,4.0,9.0,30,0.00,,---,0.00,VWS V14.00,2013-01-18 14:31:00,
2013-01-18 09:33:00,17.0,-9.1,30.29,NNW,337,3.0,9.0,30,0.00,,---,0.00,VWS V14.00,2013-01-18 14:33:00,
2013-01-18 09:34:00,17.0,-9.1,30.29,NNW,335,2.0,10.0,30,0.00,,---,0.00,VWS V14.00,2013-01-18 14:34:00,
2013-01-18 09:36:00,17.0,-8.4,30.29,NNW,328,3.0,10.0,31,0.00,,---,0.00,VWS V14.00,2013-01-18 14:36:00,
2013-01-18 09:38:00,17.0,-8.4,30.29,NNW,336,4.0,10.0,31,0.00,,---,0.00,VWS V14.00,2013-01-18 14:38:00,
2013-01-18 09:39:00,17.0,-9.1,30.29,NNW,335,3.0,10.0,30,0.00,,---,0.00,VWS V14.00,2013-01-18 14:39:00,
2013-01-18 09:41:00,17.2,-8.2,30.29,NNW,342,6.0,10.0,31,0.00,,---,0.00,VWS V14.00,2013-01-18 14:41:00,
2013-01-18 09:43:00,17.2,-8.2,30.29,NNW,340,5.0,11.0,31,0.00,,---,0.00,VWS V14.00,2013-01-18 14:43:00,
2013-01-18 09:44:00,17.2,-10.3,30.29,NNW,334,3.0,4.0,28,0.00,,---,0.00,VWS V14.00,2013-01-18 14:44:00,
2013-01-18 09:45:00,17.2,-10.3,30.29,NNW,339,4.0,5.0,28,0.00,,---,0.00,VWS V14.00,2013-01-18 14:45:00,
2013-01-18 09:46:00,17.0,-9.8,30.29,NNW,338,2.0,9.0,29,0.00,,---,0.00,VWS V14.00,2013-01-18 14:46:00,
2013-01-18 09:48:00,17.0,-10.5,30.29,NNW,345,2.0,9.0,28,0.00,,---,0.00,VWS V14.00,2013-01-18 14:48:00,
2013-01-18 09:49:00,17.0,-10.5,30.29,NNW,338,13.0,13.0,28,0.00,,---,0.00,VWS V14.00,2013-01-18 14:49:00,
2013-01-18 09:50:00,17.0,-10.5,30.29,North,0,6.0,13.0,28,0.00,,---,0.00,VWS V14.00,2013-01-18 14:50:00,
2013-01-18 09:51:00,17.0,-10.5,30.29,NNW,328,3.0,13.0,28,0.00,,---,0.00,VWS V14.00,2013-01-18 14:51:00,
2013-01-18 09:53:00,17.0,-9.8,30.29,NNW,335,3.0,13.0,29,0.00,,---,0.00,VWS V14.00,2013-01-18 14:53:00,
2013-01-18 09:54:00,17.0,-9.8,30.29,NNW,335,2.0,13.0,29,0.00,,---,0.00,VWS V14.00,2013-01-18 14:54:00,
2013-01-18 09:55:00,17.0,-9.8,30.29,NNW,335,3.0,13.0,29,0.00,,---,0.00,VWS V14.00,2013-01-18 14:55:00,
2013-01-18 09:56:00,17.2,-9.6,30.29,NNW,333,9.0,13.0,29,0.00,,---,0.00,VWS V14.00,2013-01-18 14:56:00,
2013-01-18 09:58:00,17.2,-10.3,30.30,North,349,5.0,13.0,28,0.00,,---,0.00,VWS V14.00,2013-01-18 14:58:00,
2013-01-18 09:59:00,17.2,-10.3,30.30,North,1,2.0,7.0,28,0.00,,---,0.00,VWS V14.00,2013-01-18 14:59:00,
2013-01-18 10:00:00,17.2,-10.3,30.30,North,7,4.0,7.0,28,0.00,,---,0.00,VWS V14.00,2013-01-18 15:00:00,
2013-01-18 10:02:00,17.2,-9.6,30.30,North,354,2.0,7.0,29,0.00,,---,0.00,VWS V14.00,2013-01-18 15:02:00,
2013-01-18 10:03:00,17.2,-10.3,30.30,NNW,333,1.0,7.0,28,0.00,,---,0.00,VWS V14.00,2013-01-18 15:03:00,
2013-01-18 10:05:00,17.2,-10.3,30.30,NW,316,1.0,7.0,28,0.00,,---,0.00,VWS V14.00,2013-01-18 15:05:00,
2013-01-18 10:07:00,17.3,-10.2,30.30,NNW,329,7.0,11.0,28,0.00,,---,0.00,VWS V14.00,2013-01-18 15:07:00,
2013-01-18 10:09:00,17.2,-10.3,30.30,WSW,242,0.0,13.0,28,0.00,,---,0.00,VWS V14.00,2013-01-18 15:09:00,
2013-01-18 10:10:00,17.2,-11.0,30.30,NW,325,7.0,13.0,27,0.00,,---,0.00,VWS V14.00,2013-01-18 15:10:00,
2013-01-18 10:12:00,17.3,-9.5,30.30,NNW,328,2.0,13.0,29,0.00,,---,0.00,VWS V14.00,2013-01-18 15:12:00,
2013-01-18 10:14:00,17.3,-9.5,30.29,NNW,328,3.0,13.0,29,0.00,,---,0.00,VWS V14.00,2013-01-18 15:14:00,
2013-01-18 10:15:00,17.5,-8.0,30.29,NNW,347,0.0,4.0,31,0.00,,---,0.00,VWS V14.00,2013-01-18 15:15:00,
2013-01-18 10:17:00,17.7,-8.5,30.29,NNW,340,2.0,4.0,30,0.00,,---,0.00,VWS V14.00,2013-01-18 15:17:00,
2013-01-18 10:19:00,17.8,-7.7,30.29,NNW,337,3.0,6.0,31,0.00,,---,0.00,VWS V14.00,2013-01-18 15:19:00,
2013-01-18 10:20:00,17.8,-8.4,30.29,NNW,328,4.0,8.0,30,0.00,,---,0.00,VWS V14.00,2013-01-18 15:20:00,
2013-01-18 10:23:00,18.0,-8.2,30.29,NNW,328,1.0,8.0,30,0.00,,---,0.00,VWS V14.00,2013-01-18 15:23:00,
2013-01-18 10:24:00,18.0,-8.2,30.29,NW,316,2.0,9.0,30,0.00,,---,0.00,VWS V14.00,2013-01-18 15:24:00,
2013-01-18 10:25:00,18.0,-8.2,30.29,NNW,340,3.0,9.0,30,0.00,,---,0.00,VWS V14.00,2013-01-18 15:25:00,
2013-01-18 10:28:00,18.1,-8.1,30.29,North,5,3.0,9.0,30,0.00,,---,0.00,VWS V14.00,2013-01-18 15:28:00,
2013-01-18 10:29:00,18.1,-7.4,30.29,North,350,6.0,9.0,31,0.00,,---,0.00,VWS V14.00,2013-01-18 15:29:00,
2013-01-18 10:30:00,18.3,-7.9,30.29,NNW,343,3.0,9.0,30,0.00,,---,0.00,VWS V14.00,2013-01-18 15:30:00,
2013-01-18 10:33:00,18.3,-7.9,30.29,North,10,2.0,10.0,30,0.00,,---,0.00,VWS V14.00,2013-01-18 15:33:00,
2013-01-18 10:34:00,18.3,-7.3,30.29,NNW,333,3.0,10.0,31,0.00,,---,0.00,VWS V14.00,2013-01-18 15:34:00,
2013-01-18 10:35:00,18.3,-8.6,30.29,NW,322,10.0,10.0,29,0.00,,---,0.00,VWS V14.00,2013-01-18 15:35:00,
2013-01-18 10:36:00,18.3,-8.6,30.29,NNW,330,6.0,11.0,29,0.00,,---,0.00,VWS V14.00,2013-01-18 15:36:00,
2013-01-18 10:38:00,18.1,-8.8,30.29,North,0,6.0,11.0,29,0.00,,---,0.00,VWS V14.00,2013-01-18 15:38:00,
2013-01-18 10:39:00,18.1,-9.5,30.29,North,354,0.0,11.0,28,0.00,,---,0.00,VWS V14.00,2013-01-18 15:39:00,
2013-01-18 10:41:00,18.3,-7.3,30.29,North,354,0.0,11.0,31,0.00,,---,0.00,VWS V14.00,2013-01-18 15:41:00,
2013-01-18 10:43:00,18.4,-7.8,30.29,WSW,252,5.0,11.0,30,0.00,,---,0.00,VWS V14.00,2013-01-18 15:43:00,
2013-01-18 10:45:00,18.6,-9.1,30.30,NNW,333,3.0,13.0,28,0.00,,---,0.00,VWS V14.00,2013-01-18 15:45:00,
2013-01-18 10:46:00,18.6,-8.4,30.30,NNW,328,8.0,13.0,29,0.00,,---,0.00,VWS V14.00,2013-01-18 15:46:00,
2013-01-18 10:48:00,18.6,-9.1,30.30,NNW,339,5.0,13.0,28,0.00,,---,0.00,VWS V14.00,2013-01-18 15:48:00,
2013-01-18 10:50:00,18.6,-9.1,30.30,NNW,330,3.0,13.0,28,0.00,,---,0.00,VWS V14.00,2013-01-18 15:50:00,
2013-01-18 10:51:00,18.6,-8.4,30.30,NW,314,5.0,13.0,29,0.00,,---,0.00,VWS V14.00,2013-01-18 15:51:00,
2013-01-18 10:53:00,18.6,-8.4,30.30,SW,234,4.0,13.0,29,0.00,,---,0.00,VWS V14.00,2013-01-18 15:53:00,
2013-01-18 10:55:00,18.8,-6.8,30.30,NW,316,9.0,13.0,31,0.00,,---,0.00,VWS V14.00,2013-01-18 15:55:00,
2013-01-18 10:56:00,18.8,-8.2,30.30,NW,309,2.0,13.0,29,0.00,,---,0.00,VWS V14.00,2013-01-18 15:56:00,
2013-01-18 10:58:00,18.8,-8.2,30.30,NW,314,3.0,13.0,29,0.00,,---,0.00,VWS V14.00,2013-01-18 15:58:00,
2013-01-18 11:00:00,18.8,-8.2,30.30,NNW,334,11.0,11.0,29,0.00,,---,0.00,VWS V14.00,2013-01-18 16:00:00,
2013-01-18 11:01:00,18.9,-8.1,30.30,NNW,344,7.0,11.0,29,0.00,,---,0.00,VWS V14.00,2013-01-18 16:01:00,
2013-01-18 11:03:00,18.8,-8.2,30.30,NNW,330,5.0,14.0,29,0.00,,---,0.00,VWS V14.00,2013-01-18 16:03:00,
2013-01-18 11:05:00,18.8,-8.9,30.30,North,1,6.0,15.0,28,0.00,,---,0.00,VWS V14.00,2013-01-18 16:05:00,
2013-01-18 11:06:00,18.8,-8.2,30.30,NNW,334,12.0,15.0,29,0.00,,---,0.00,VWS V14.00,2013-01-18 16:06:00,
2013-01-18 11:08:00,18.8,-8.2,30.30,NW,323,2.0,15.0,29,0.00,,---,0.00,VWS V14.00,2013-01-18 16:08:00,
2013-01-18 11:10:00,18.8,-8.9,30.30,North,352,7.0,15.0,28,0.00,,---,0.00,VWS V14.00,2013-01-18 16:10:00,
2013-01-18 11:11:00,18.8,-8.9,30.30,NNW,335,3.0,15.0,28,0.00,,---,0.00,VWS V14.00,2013-01-18 16:11:00,
2013-01-18 11:13:00,18.8,-8.2,30.30,NNW,342,6.0,15.0,29,0.00,,---,0.00,VWS V14.00,2013-01-18 16:13:00,
2013-01-18 11:15:00,18.8,-8.9,30.30,NNW,333,7.0,7.0,28,0.00,,---,0.00,VWS V14.00,2013-01-18 16:15:00,
2013-01-18 11:16:00,18.8,-8.9,30.30,NNW,335,6.0,9.0,28,0.00,,---,0.00,VWS V14.00,2013-01-18 16:16:00,
2013-01-18 11:19:00,18.9,-8.1,30.30,NW,326,0.0,9.0,29,0.00,,---,0.00,VWS V14.00,2013-01-18 16:19:00,
2013-01-18 11:20:00,18.9,-8.8,30.30,NW,320,4.0,9.0,28,0.00,,---,0.00,VWS V14.00,2013-01-18 16:20:00,
2013-01-18 11:21:00,19.1,-8.6,30.30,NW,319,4.0,9.0,28,0.00,,---,0.00,VWS V14.00,2013-01-18 16:21:00,
2013-01-18 11:24:00,19.2,-7.8,30.30,North,355,0.0,12.0,29,0.00,,---,0.00,VWS V14.00,2013-01-18 16:24:00,
2013-01-18 11:25:00,19.4,-7.7,30.30,NNW,340,3.0,12.0,29,0.00,,---,0.00,VWS V14.00,2013-01-18 16:25:00,
2013-01-18 11:26:00,19.5,-7.6,30.30,North,0,0.0,12.0,29,0.00,,---,0.00,VWS V14.00,2013-01-18 16:26:00,
2013-01-18 11:27:00,19.5,-7.6,30.30,NNW,347,5.0,12.0,29,0.00,,---,0.00,VWS V14.00,2013-01-18 16:27:00,
2013-01-18 11:29:00,19.7,-8.1,30.29,North,359,7.0,14.0,28,0.00,,---,0.00,VWS V14.00,2013-01-18 16:29:00,
2013-01-18 11:30:00,19.5,-8.3,30.29,NNW,339,4.0,11.0,28,0.00,,---,0.00,VWS V14.00,2013-01-18 16:30:00,
2013-01-18 11:31:00,19.4,-9.1,30.29,North,354,3.0,11.0,27,0.00,,---,0.00,VWS V14.00,2013-01-18 16:31:00,
2013-01-18 11:32:00,19.4,-8.4,30.29,North,354,1.0,11.0,28,0.00,,---,0.00,VWS V14.00,2013-01-18 16:32:00,
2013-01-18 11:34:00,19.5,-8.3,30.29,NNW,342,3.0,11.0,28,0.00,,---,0.00,VWS V14.00,2013-01-18 16:34:00,
2013-01-18 11:36:00,19.7,-7.4,30.29,WNW,292,0.0,11.0,29,0.00,,---,0.00,VWS V14.00,2013-01-18 16:36:00,
2013-01-18 11:37:00,19.9,-8.7,30.29,NW,314,3.0,11.0,27,0.00,,---,0.00,VWS V14.00,2013-01-18 16:37:00,
2013-01-18 11:39:00,20.0,-7.8,30.29,NNW,344,6.0,13.0,28,0.00,,---,0.00,VWS V14.00,2013-01-18 16:39:00,
2013-01-18 11:41:00,20.0,-7.8,30.29,NNW,330,14.0,16.0,28,0.00,,---,0.00,VWS V14.00,2013-01-18 16:41:00,
2013-01-18 11:42:00,20.0,-8.6,30.29,NW,316,3.0,16.0,27,0.00,,---,0.00,VWS V14.00,2013-01-18 16:42:00,
2013-01-18 11:44:00,20.0,-7.8,30.29,NNW,347,4.0,16.0,28,0.00,,---,0.00,VWS V14.00,2013-01-18 16:44:00,
2013-01-18 11:45:00,20.0,-7.8,30.29,NNW,335,5.0,16.0,28,0.00,,---,0.00,VWS V14.00,2013-01-18 16:45:00,
2013-01-18 11:46:00,20.0,-8.6,30.29,NNW,328,4.0,6.0,27,0.00,,---,0.00,VWS V14.00,2013-01-18 16:46:00,
2013-01-18 11:47:00,20.0,-7.8,30.29,NNW,341,7.0,9.0,28,0.00,,---,0.00,VWS V14.00,2013-01-18 16:47:00,
2013-01-18 11:49:00,20.0,-8.6,30.29,NNW,330,6.0,17.0,27,0.00,,---,0.00,VWS V14.00,2013-01-18 16:49:00,
2013-01-18 11:51:00,20.2,-7.7,30.29,WNW,286,4.0,17.0,28,0.00,,---,0.00,VWS V14.00,2013-01-18 16:51:00,
2013-01-18 11:52:00,20.2,-7.7,30.29,North,356,9.0,17.0,28,0.00,,---,0.00,VWS V14.00,2013-01-18 16:52:00,
2013-01-18 11:54:00,20.3,-8.3,30.29,NW,315,10.0,17.0,27,0.00,,---,0.00,VWS V14.00,2013-01-18 16:54:00,
2013-01-18 11:56:00,20.3,-8.3,30.29,NNW,329,9.0,17.0,27,0.00,,---,0.00,VWS V14.00,2013-01-18 16:56:00,
2013-01-18 11:57:00,20.3,-8.3,30.29,NNW,330,5.0,17.0,27,0.00,,---,0.00,VWS V14.00,2013-01-18 16:57:00,
2013-01-18 11:59:00,20.5,-8.2,30.29,NNW,338,5.0,5.0,27,0.00,,---,0.00,VWS V14.00,2013-01-18 16:59:00,
2013-01-18 12:00:00,20.5,-8.2,30.29,NNW,345,4.0,17.0,27,0.00,,---,0.00,VWS V14.00,2013-01-18 17:00:00,
2013-01-18 12:01:00,20.5,-8.2,30.29,NNW,342,7.0,7.0,27,0.00,,---,0.00,VWS V14.00,2013-01-18 17:01:00,
2013-01-18 12:02:00,20.5,-8.2,30.29,NNW,335,5.0,13.0,27,0.00,,---,0.00,VWS V14.00,2013-01-18 17:02:00,
2013-01-18 12:04:00,20.5,-8.9,30.29,NW,314,11.0,13.0,26,0.00,,---,0.00,VWS V14.00,2013-01-18 17:04:00,
2013-01-18 12:06:00,20.5,-8.2,30.29,North,353,11.0,14.0,27,0.00,,---,0.00,VWS V14.00,2013-01-18 17:06:00,
2013-01-18 12:07:00,20.5,-8.9,30.29,NNW,346,3.0,14.0,26,0.00,,---,0.00,VWS V14.00,2013-01-18 17:07:00,
2013-01-18 12:09:00,20.5,-8.9,30.29,NNW,338,0.0,14.0,26,0.00,,---,0.00,VWS V14.00,2013-01-18 17:09:00,
2013-01-18 12:11:00,20.5,-8.9,30.29,North,3,7.0,14.0,26,0.00,,---,0.00,VWS V14.00,2013-01-18 17:11:00,
2013-01-18 12:12:00,20.6,-8.1,30.29,NNW,345,0.0,14.0,27,0.00,,---,0.00,VWS V14.00,2013-01-18 17:12:00,
2013-01-18 12:14:00,20.8,-7.9,30.28,NNW,340,4.0,5.0,27,0.00,,---,0.00,VWS V14.00,2013-01-18 17:14:00,
2013-01-18 12:15:00,20.6,-8.1,30.28,North,359,4.0,15.0,27,0.00,,---,0.00,VWS V14.00,2013-01-18 17:15:00,
2013-01-18 12:17:00,20.8,-7.9,30.28,NNW,340,6.0,11.0,27,0.00,,---,0.00,VWS V14.00,2013-01-18 17:17:00,
2013-01-18 12:19:00,21.0,-7.7,30.28,NNW,333,3.0,12.0,27,0.00,,---,0.00,VWS V14.00,2013-01-18 17:19:00,
2013-01-18 12:22:00,21.0,-7.7,30.28,North,351,6.0,15.0,27,0.00,,---,0.00,VWS V14.00,2013-01-18 17:22:00,
2013-01-18 12:23:00,21.1,-7.6,30.28,North,357,6.0,15.0,27,0.00,,---,0.00,VWS V14.00,2013-01-18 17:23:00,
2013-01-18 12:24:00,21.1,-7.6,30.28,NNW,343,9.0,15.0,27,0.00,,---,0.00,VWS V14.00,2013-01-18 17:24:00,
2013-01-18 12:27:00,21.3,-7.5,30.28,NNW,328,3.0,15.0,27,0.00,,---,0.00,VWS V14.00,2013-01-18 17:27:00,
2013-01-18 12:28:00,21.3,-8.2,30.28,NNW,345,2.0,15.0,26,0.00,,---,0.00,VWS V14.00,2013-01-18 17:28:00,
2013-01-18 12:30:00,21.3,-7.5,30.28,NNW,341,5.0,10.0,27,0.00,,---,0.00,VWS V14.00,2013-01-18 17:30:00,
2013-01-18 12:32:00,21.3,-6.7,30.28,NNW,332,4.0,11.0,28,0.00,,---,0.00,VWS V14.00,2013-01-18 17:32:00,
2013-01-18 12:33:00,21.3,-8.2,30.28,WSW,241,2.0,11.0,26,0.00,,---,0.00,VWS V14.00,2013-01-18 17:33:00,
2013-01-18 12:35:00,21.4,-7.4,30.28,North,355,4.0,11.0,27,0.00,,---,0.00,VWS V14.00,2013-01-18 17:35:00,
2013-01-18 12:37:00,21.6,-6.5,30.28,NW,325,0.0,11.0,28,0.00,,---,0.00,VWS V14.00,2013-01-18 17:37:00,
2013-01-18 12:38:00,21.6,-7.2,30.28,WNW,290,2.0,11.0,27,0.00,,---,0.00,VWS V14.00,2013-01-18 17:38:00,
2013-01-18 12:40:00,21.8,-7.8,30.28,NW,304,8.0,13.0,26,0.00,,---,0.00,VWS V14.00,2013-01-18 17:40:00,
2013-01-18 12:42:00,21.8,-7.0,30.28,NW,316,4.0,16.0,27,0.00,,---,0.00,VWS V14.00,2013-01-18 17:42:00,
2013-01-18 12:43:00,21.8,-7.0,30.28,NNW,329,6.0,16.0,27,0.00,,---,0.00,VWS V14.00,2013-01-18 17:43:00,
2013-01-18 12:45:00,21.6,-8.0,30.28,NNW,338,18.0,18.0,26,0.00,,---,0.00,VWS V14.00,2013-01-18 17:45:00,
2013-01-18 12:47:00,21.4,-8.1,30.28,North,8,7.0,18.0,26,0.00,,---,0.00,VWS V14.00,2013-01-18 17:47:00,
2013-01-18 12:48:00,21.4,-7.4,30.28,North,349,6.0,18.0,27,0.00,,---,0.00,VWS V14.00,2013-01-18 17:48:00,
2013-01-18 12:50:00,21.4,-8.1,30.28,NW,321,4.0,18.0,26,0.00,,---,0.00,VWS V14.00,2013-01-18 17:50:00,
2013-01-18 12:52:00,21.4,-8.1,30.28,NNW,338,6.0,18.0,26,0.00,,---,0.00,VWS V14.00,2013-01-18 17:52:00,
2013-01-18 12:53:00,21.6,-8.0,30.28,NNW,340,9.0,18.0,26,0.00,,---,0.00,VWS V14.00,2013-01-18 17:53:00,
2013-01-18 12:55:00,21.6,-7.2,30.28,NNW,328,13.0,18.0,27,0.00,,---,0.00,VWS V14.00,2013-01-18 17:55:00,
2013-01-18 12:57:00,21.6,-8.0,30.28,NNW,340,6.0,18.0,26,0.00,,---,0.00,VWS V14.00,2013-01-18 17:57:00,
2013-01-18 12:58:00,21.6,-7.2,30.28,North,359,10.0,18.0,27,0.00,,---,0.00,VWS V14.00,2013-01-18 17:58:00,
2013-01-18 12:59:00,21.6,-8.0,30.28,NW,309,3.0,18.0,26,0.00,,---,0.00,VWS V14.00,2013-01-18 17:59:00,
2013-01-18 13:00:00,21.6,-8.0,30.28,NNW,338,2.0,18.0,26,0.00,,---,0.00,VWS V14.00,2013-01-18 18:00:00,
2013-01-18 13:01:00,21.6,-7.2,30.28,NW,321,5.0,8.0,27,0.00,,---,0.00,VWS V14.00,2013-01-18 18:01:00,
2013-01-18 13:02:00,21.8,-7.0,30.28,NW,312,7.0,9.0,27,0.00,,---,0.00,VWS V14.00,2013-01-18 18:02:00,
2013-01-18 13:03:00,21.8,-7.0,30.28,NW,325,1.0,9.0,27,0.00,,---,0.00,VWS V14.00,2013-01-18 18:03:00,
2013-01-18 13:04:00,21.9,-6.9,30.28,West,265,4.0,9.0,27,0.00,,---,0.00,VWS V14.00,2013-01-18 18:04:00,
2013-01-18 13:06:00,21.9,-6.9,30.28,NNW,334,9.0,13.0,27,0.00,,---,0.00,VWS V14.00,2013-01-18 18:06:00,
2013-01-18 13:07:00,22.1,-6.8,30.28,NNW,328,3.0,13.0,27,0.00,,---,0.00,VWS V14.00,2013-01-18 18:07:00,
2013-01-18 13:08:00,22.1,-6.8,30.28,North,352,4.0,13.0,27,0.00,,---,0.00,VWS V14.00,2013-01-18 18:08:00,
2013-01-18 13:09:00,22.1,-6.8,30.28,North,355,14.0,14.0,27,0.00,,---,0.00,VWS V14.00,2013-01-18 18:09:00,
2013-01-18 13:11:00,22.1,-6.8,30.28,NNW,331,3.0,14.0,27,0.00,,---,0.00,VWS V14.00,2013-01-18 18:11:00,
2013-01-18 13:12:00,22.1,-6.8,30.28,NNW,333,9.0,14.0,27,0.00,,---,0.00,VWS V14.00,2013-01-18 18:12:00,
2013-01-18 13:13:00,22.1,-6.8,30.29,NW,324,9.0,14.0,27,0.00,,---,0.00,VWS V14.00,2013-01-18 18:13:00,
2013-01-18 13:14:00,22.1,-6.8,30.29,NW,324,6.0,14.0,27,0.00,,---,0.00,VWS V14.00,2013-01-18 18:14:00,
2013-01-18 13:15:00,22.1,-6.8,30.29,NNW,339,5.0,14.0,27,0.00,,---,0.00,VWS V14.00,2013-01-18 18:15:00,
2013-01-18 13:16:00,22.1,-6.8,30.29,NNW,335,9.0,10.0,27,0.00,,---,0.00,VWS V14.00,2013-01-18 18:16:00,
2013-01-18 13:17:00,22.1,-6.8,30.29,NNW,331,2.0,10.0,27,0.00,,---,0.00,VWS V14.00,2013-01-18 18:17:00,
2013-01-18 13:18:00,22.1,-7.5,30.29,North,356,8.0,11.0,26,0.00,,---,0.00,VWS V14.00,2013-01-18 18:18:00,
2013-01-18 13:19:00,22.1,-7.5,30.29,North,359,7.0,11.0,26,0.00,,---,0.00,VWS V14.00,2013-01-18 18:19:00,
2013-01-18 13:21:00,22.2,-6.7,30.29,North,355,5.0,15.0,27,0.00,,---,0.00,VWS V14.00,2013-01-18 18:21:00,
2013-01-18 13:23:00,22.2,-7.5,30.29,North,357,3.0,15.0,26,0.00,,---,0.00,VWS V14.00,2013-01-18 18:23:00,
2013-01-18 13:24:00,22.2,-6.7,30.29,NNW,333,2.0,15.0,27,0.00,,---,0.00,VWS V14.00,2013-01-18 18:24:00,
2013-01-18 13:26:00,22.4,-6.5,30.29,NNW,331,3.0,15.0,27,0.00,,---,0.00,VWS V14.00,2013-01-18 18:26:00,
2013-01-18 13:28:00,22.4,-6.5,30.29,North,359,3.0,15.0,27,0.00,,---,0.00,VWS V14.00,2013-01-18 18:28:00,
2013-01-18 13:29:00,22.5,-5.7,30.29,NNW,346,0.0,15.0,28,0.00,,---,0.00,VWS V14.00,2013-01-18 18:29:00,
2013-01-18 13:30:00,22.5,-5.7,30.29,NNW,346,0.0,15.0,28,0.00,,---,0.00,VWS V14.00,2013-01-18 18:30:00,
2013-01-18 13:31:00,22.7,-6.2,30.29,NNW,338,0.0,4.0,27,0.00,,---,0.00,VWS V14.00,2013-01-18 18:31:00,
2013-01-18 13:33:00,22.9,-6.1,30.29,North,359,0.0,4.0,27,0.00,,---,0.00,VWS V14.00,2013-01-18 18:33:00,
2013-01-18 13:34:00,23.0,-6.0,30.29,WNW,300,0.0,4.0,27,0.00,,---,0.00,VWS V14.00,2013-01-18 18:34:00,
2013-01-18 13:36:00,23.3,-5.7,30.29,North,1,2.0,5.0,27,0.00,,---,0.00,VWS V14.00,2013-01-18 18:36:00,
2013-01-18 13:38:00,23.5,-6.3,30.29,North,359,5.0,9.0,26,0.00,,---,0.00,VWS V14.00,2013-01-18 18:38:00,
2013-01-18 13:40:00,23.3,-6.5,30.29,NNW,327,0.0,11.0,26,0.00,,---,0.00,VWS V14.00,2013-01-18 18:40:00,
2013-01-18 13:41:00,23.3,-5.7,30.29,WNW,287,2.0,11.0,27,0.00,,---,0.00,VWS V14.00,2013-01-18 18:41:00,
2013-01-18 13:43:00,23.3,-6.5,30.29,WNW,300,4.0,13.0,26,0.00,,---,0.00,VWS V14.00,2013-01-18 18:43:00,
2013-01-18 13:44:00,23.3,-6.5,30.29,NNW,335,0.0,13.0,26,0.00,,---,0.00,VWS V14.00,2013-01-18 18:44:00,
2013-01-18 13:45:00,23.5,-5.6,30.29,NNW,332,1.0,5.0,27,0.00,,---,0.00,VWS V14.00,2013-01-18 18:45:00,
2013-01-18 13:47:00,23.6,-6.2,30.29,West,262,9.0,15.0,26,0.00,,---,0.00,VWS V14.00,2013-01-18 18:47:00,
2013-01-18 13:48:00,23.6,-6.2,30.29,NNW,345,5.0,17.0,26,0.00,,---,0.00,VWS V14.00,2013-01-18 18:48:00,
2013-01-18 13:49:00,23.6,-6.2,30.29,North,349,6.0,17.0,26,0.00,,---,0.00,VWS V14.00,2013-01-18 18:49:00,
2013-01-18 13:50:00,23.6,-7.1,30.29,NNW,345,3.0,17.0,25,0.00,,---,0.00,VWS V14.00,2013-01-18 18:50:00,
2013-01-18 13:52:00,23.6,-7.1,30.29,WNW,303,3.0,17.0,25,0.00,,---,0.00,VWS V14.00,2013-01-18 18:52:00,
2013-01-18 13:53:00,23.6,-6.2,30.29,NNW,348,12.0,17.0,26,0.00,,---,0.00,VWS V14.00,2013-01-18 18:53:00,
2013-01-18 13:54:00,23.6,-7.9,30.29,NNW,347,12.0,17.0,24,0.00,,---,0.00,VWS V14.00,2013-01-18 18:54:00,
2013-01-18 13:55:00,23.6,-7.9,30.29,NNW,341,3.0,17.0,24,0.00,,---,0.00,VWS V14.00,2013-01-18 18:55:00,
2013-01-18 13:57:00,23.5,-8.0,30.29,West,264,2.0,17.0,24,0.00,,---,0.00,VWS V14.00,2013-01-18 18:57:00,
2013-01-18 13:58:00,23.5,-8.0,30.29,NW,307,0.0,17.0,24,0.00,,---,0.00,VWS V14.00,2013-01-18 18:58:00,
2013-01-18 13:59:00,23.6,-7.9,30.29,North,1,10.0,17.0,24,0.00,,---,0.00,VWS V14.00,2013-01-18 18:59:00,
2013-01-18 14:00:00,23.6,-7.9,30.29,NNW,331,4.0,5.0,24,0.00,,---,0.00,VWS V14.00,2013-01-18 19:00:00,
2013-01-18 14:02:00,23.6,-7.9,30.29,NW,323,9.0,9.0,24,0.00,,---,0.00,VWS V14.00,2013-01-18 19:02:00,
2013-01-18 14:03:00,23.6,-7.9,30.29,North,358,1.0,13.0,24,0.00,,---,0.00,VWS V14.00,2013-01-18 19:03:00,
2013-01-18 14:04:00,23.6,-8.8,30.29,NNW,346,8.0,13.0,23,0.00,,---,0.00,VWS V14.00,2013-01-18 19:04:00,
2013-01-18 14:05:00,23.6,-8.8,30.29,North,349,3.0,13.0,23,0.00,,---,0.00,VWS V14.00,2013-01-18 19:05:00,
2013-01-18 14:07:00,23.6,-7.9,30.29,NNW,340,2.0,13.0,24,0.00,,---,0.00,VWS V14.00,2013-01-18 19:07:00,
2013-01-18 14:08:00,23.6,-7.9,30.29,North,0,3.0,13.0,24,0.00,,---,0.00,VWS V14.00,2013-01-18 19:08:00,
2013-01-18 14:09:00,23.8,-7.7,30.29,NNW,339,2.0,13.0,24,0.00,,---,0.00,VWS V14.00,2013-01-18 19:09:00,
2013-01-18 14:10:00,23.8,-7.7,30.29,NNW,329,3.0,13.0,24,0.00,,---,0.00,VWS V14.00,2013-01-18 19:10:00,
2013-01-18 14:12:00,23.9,-7.6,30.29,West,267,9.0,15.0,24,0.00,,---,0.00,VWS V14.00,2013-01-18 19:12:00,
2013-01-18 14:13:00,23.9,-7.6,30.30,NNW,327,6.0,15.0,24,0.00,,---,0.00,VWS V14.00,2013-01-18 19:13:00,
2013-01-18 14:15:00,23.9,-7.6,30.30,WNW,292,3.0,4.0,24,0.00,,---,0.00,VWS V14.00,2013-01-18 19:15:00,
2013-01-18 14:17:00,23.9,-9.4,30.30,North,357,5.0,16.0,22,0.00,,---,0.00,VWS V14.00,2013-01-18 19:17:00,
2013-01-18 14:19:00,23.8,-8.6,30.30,NNW,333,12.0,16.0,23,0.00,,---,0.00,VWS V14.00,2013-01-18 19:19:00,
2013-01-18 14:20:00,23.8,-9.5,30.30,NNW,328,13.0,16.0,22,0.00,,---,0.00,VWS V14.00,2013-01-18 19:20:00,
2013-01-18 14:22:00,23.6,-9.7,30.30,NNW,328,9.0,19.0,22,0.00,,---,0.00,VWS V14.00,2013-01-18 19:22:00,
2013-01-18 14:24:00,23.6,-7.9,30.30,WNW,301,7.0,19.0,24,0.00,,---,0.00,VWS V14.00,2013-01-18 19:24:00,
2013-01-18 14:25:00,23.8,-7.7,30.30,NNW,337,14.0,19.0,24,0.00,,---,0.00,VWS V14.00,2013-01-18 19:25:00,
2013-01-18 14:27:00,23.8,-8.6,30.30,North,352,4.0,19.0,23,0.00,,---,0.00,VWS V14.00,2013-01-18 19:27:00,
2013-01-18 14:29:00,23.6,-9.7,30.31,NNW,331,13.0,19.0,22,0.00,,---,0.00,VWS V14.00,2013-01-18 19:29:00,
2013-01-18 14:30:00,23.6,-9.7,30.31,NW,321,2.0,13.0,22,0.00,,---,0.00,VWS V14.00,2013-01-18 19:30:00,
2013-01-18 14:32:00,23.6,-7.9,30.31,NW,326,7.0,13.0,24,0.00,,---,0.00,VWS V14.00,2013-01-18 19:32:00,
2013-01-18 14:34:00,23.6,-8.8,30.31,NNW,333,4.0,13.0,23,0.00,,---,0.00,VWS V14.00,2013-01-18 19:34:00,
2013-01-18 14:35:00,23.6,-8.8,30.31,North,0,3.0,13.0,23,0.00,,---,0.00,VWS V14.00,2013-01-18 19:35:00,
2013-01-18 14:36:00,23.6,-8.8,30.31,North,4,6.0,13.0,23,0.00,,---,0.00,VWS V14.00,2013-01-18 19:36:00,
2013-01-18 14:37:00,23.8,-7.7,30.31,NNW,332,4.0,14.0,24,0.00,,---,0.00,VWS V14.00,2013-01-18 19:37:00,
2013-01-18 14:39:00,23.8,-6.9,30.31,NNW,344,1.0,14.0,25,0.00,,---,0.00,VWS V14.00,2013-01-18 19:39:00,
2013-01-18 14:40:00,23.9,-7.6,30.31,North,352,7.0,14.0,24,0.00,,---,0.00,VWS V14.00,2013-01-18 19:40:00,
2013-01-18 14:41:00,23.9,-7.6,30.31,NW,311,5.0,14.0,24,0.00,,---,0.00,VWS V14.00,2013-01-18 19:41:00,
2013-01-18 14:42:00,23.9,-7.6,30.31,North,359,6.0,14.0,24,0.00,,---,0.00,VWS V14.00,2013-01-18 19:42:00,
2013-01-18 14:44:00,23.9,-7.6,30.31,North,1,3.0,3.0,24,0.00,,---,0.00,VWS V14.00,2013-01-18 19:44:00,
2013-01-18 14:45:00,23.9,-7.6,30.31,NNW,339,13.0,13.0,24,0.00,,---,0.00,VWS V14.00,2013-01-18 19:45:00,
2013-01-18 14:46:00,23.9,-6.8,30.31,North,358,4.0,13.0,25,0.00,,---,0.00,VWS V14.00,2013-01-18 19:46:00,
2013-01-18 14:47:00,23.9,-7.6,30.31,NNW,348,7.0,13.0,24,0.00,,---,0.00,VWS V14.00,2013-01-18 19:47:00,
2013-01-18 14:50:00,23.9,-6.8,30.31,NNW,342,1.0,13.0,25,0.00,,---,0.00,VWS V14.00,2013-01-18 19:50:00,
2013-01-18 14:51:00,24.1,-5.8,30.31,SSW,201,3.0,14.0,26,0.00,,---,0.00,VWS V14.00,2013-01-18 19:51:00,
2013-01-18 14:52:00,24.1,-6.6,30.31,NNW,330,6.0,14.0,25,0.00,,---,0.00,VWS V14.00,2013-01-18 19:52:00,
2013-01-18 14:55:00,24.1,-6.6,30.31,NW,311,2.0,14.0,25,0.00,,---,0.00,VWS V14.00,2013-01-18 19:55:00,
2013-01-18 14:56:00,24.1,-5.8,30.31,West,275,2.0,14.0,26,0.00,,---,0.00,VWS V14.00,2013-01-18 19:56:00,
2013-01-18 14:57:00,24.2,-6.5,30.31,NW,319,2.0,14.0,25,0.00,,---,0.00,VWS V14.00,2013-01-18 19:57:00,
2013-01-18 15:00:00,24.4,-6.4,30.32,NNW,328,2.0,6.0,25,0.00,,---,0.00,VWS V14.00,2013-01-18 20:00:00,
2013-01-18 15:01:00,24.4,-6.4,30.32,NNW,327,6.0,12.0,25,0.00,,---,0.00,VWS V14.00,2013-01-18 20:01:00,
2013-01-18 15:03:00,24.2,-7.4,30.32,West,278,2.0,12.0,24,0.00,,---,0.00,VWS V14.00,2013-01-18 20:03:00,
2013-01-18 15:05:00,24.4,-6.4,30.32,NNW,332,0.0,12.0,25,0.00,,---,0.00,VWS V14.00,2013-01-18 20:05:00,
2013-01-18 15:06:00,24.4,-5.6,30.32,North,351,2.0,12.0,26,0.00,,---,0.00,VWS V14.00,2013-01-18 20:06:00,
2013-01-18 15:08:00,24.4,-5.6,30.32,NNW,332,5.0,12.0,26,0.00,,---,0.00,VWS V14.00,2013-01-18 20:08:00,
2013-01-18 15:10:00,24.4,-6.4,30.32,North,352,5.0,12.0,25,0.00,,---,0.00,VWS V14.00,2013-01-18 20:10:00,
2013-01-18 15:11:00,24.2,-6.5,30.32,North,0,8.0,12.0,25,0.00,,---,0.00,VWS V14.00,2013-01-18 20:11:00,
2013-01-18 15:13:00,23.9,-7.6,30.32,NNW,328,1.0,19.0,24,0.00,,---,0.00,VWS V14.00,2013-01-18 20:13:00,
2013-01-18 15:15:00,23.8,-6.9,30.32,NW,314,3.0,12.0,25,0.00,,---,0.00,VWS V14.00,2013-01-18 20:15:00,
2013-01-18 15:16:00,23.8,-6.9,30.32,NNW,328,11.0,13.0,25,0.00,,---,0.00,VWS V14.00,2013-01-18 20:16:00,
2013-01-18 15:18:00,23.6,-7.1,30.32,North,359,5.0,14.0,25,0.00,,---,0.00,VWS V14.00,2013-01-18 20:18:00,
2013-01-18 15:20:00,23.8,-6.1,30.32,North,359,4.0,14.0,26,0.00,,---,0.00,VWS V14.00,2013-01-18 20:20:00,
2013-01-18 15:21:00,23.8,-6.1,30.32,NNW,342,2.0,14.0,26,0.00,,---,0.00,VWS V14.00,2013-01-18 20:21:00,
2013-01-18 15:23:00,23.9,-6.8,30.32,NNW,330,2.0,14.0,25,0.00,,---,0.00,VWS V14.00,2013-01-18 20:23:00,
2013-01-18 15:25:00,23.9,-6.8,30.32,NNW,328,11.0,14.0,25,0.00,,---,0.00,VWS V14.00,2013-01-18 20:25:00,
2013-01-18 15:26:00,23.8,-7.7,30.32,NNW,344,6.0,14.0,24,0.00,,---,0.00,VWS V14.00,2013-01-18 20:26:00,
2013-01-18 15:27:00,23.8,-7.7,30.32,NW,311,6.0,14.0,24,0.00,,---,0.00,VWS V14.00,2013-01-18 20:27:00,
2013-01-18 15:28:00,23.8,-7.7,30.32,North,358,7.0,14.0,24,0.00,,---,0.00,VWS V14.00,2013-01-18 20:28:00,
2013-01-18 15:30:00,23.6,-8.8,30.32,North,0,10.0,10.0,23,0.00,,---,0.00,VWS V14.00,2013-01-18 20:30:00,
2013-01-18 15:31:00,23.5,-8.0,30.32,NW,319,9.0,16.0,24,0.00,,---,0.00,VWS V14.00,2013-01-18 20:31:00,
2013-01-18 15:32:00,23.5,-8.8,30.32,WNW,302,4.0,16.0,23,0.00,,---,0.00,VWS V14.00,2013-01-18 20:32:00,
2013-01-18 15:33:00,23.5,-8.0,30.32,NNW,332,6.0,16.0,24,0.00,,---,0.00,VWS V14.00,2013-01-18 20:33:00,
2013-01-18 15:35:00,23.6,-7.1,30.32,NW,314,0.0,16.0,25,0.00,,---,0.00,VWS V14.00,2013-01-18 20:35:00,
2013-01-18 15:36:00,23.6,-7.1,30.32,NW,317,1.0,16.0,25,0.00,,---,0.00,VWS V14.00,2013-01-18 20:36:00,
2013-01-18 15:37:00,23.6,-7.1,30.32,NW,317,2.0,16.0,25,0.00,,---,0.00,VWS V14.00,2013-01-18 20:37:00,
2013-01-18 15:38:00,23.6,-7.1,30.32,NNW,340,10.0,16.0,25,0.00,,---,0.00,VWS V14.00,2013-01-18 20:38:00,
2013-01-18 15:41:00,23.6,-7.9,30.32,NNW,348,1.0,16.0,24,0.00,,---,0.00,VWS V14.00,2013-01-18 20:41:00,
2013-01-18 15:42:00,23.6,-7.9,30.32,NW,326,5.0,16.0,24,0.00,,---,0.00,VWS V14.00,2013-01-18 20:42:00,
2013-01-18 15:43:00,23.6,-7.1,30.32,NW,326,5.0,16.0,25,0.00,,---,0.00,VWS V14.00,2013-01-18 20:43:00,
2013-01-18 15:45:00,23.6,-7.9,30.32,NNW,343,1.0,16.0,24,0.00,,---,0.00,VWS V14.00,2013-01-18 20:45:00,
2013-01-18 15:46:00,23.6,-7.9,30.32,NNW,333,6.0,6.0,24,0.00,,---,0.00,VWS V14.00,2013-01-18 20:46:00,
2013-01-18 15:47:00,23.5,-8.0,30.32,NNW,340,6.0,6.0,24,0.00,,---,0.00,VWS V14.00,2013-01-18 20:47:00,
2013-01-18 15:49:00,23.5,-7.1,30.32,NNW,341,4.0,9.0,25,0.00,,---,0.00,VWS V14.00,2013-01-18 20:49:00,
2013-01-18 15:51:00,23.3,-7.3,30.32,NNW,328,2.0,9.0,25,0.00,,---,0.00,VWS V14.00,2013-01-18 20:51:00,
2013-01-18 15:52:00,23.3,-7.3,30.32,North,359,3.0,9.0,25,0.00,,---,0.00,VWS V14.00,2013-01-18 20:52:00,
2013-01-18 15:54:00,23.3,-7.3,30.32,North,350,2.0,10.0,25,0.00,,---,0.00,VWS V14.00,2013-01-18 20:54:00,
2013-01-18 15:56:00,23.3,-7.3,30.32,NNW,340,3.0,10.0,25,0.00,,---,0.00,VWS V14.00,2013-01-18 20:56:00,
2013-01-18 15:57:00,23.2,-7.4,30.32,NNW,340,0.0,10.0,25,0.00,,---,0.00,VWS V14.00,2013-01-18 20:57:00,
2013-01-18 15:59:00,23.2,-6.6,30.32,NNW,347,0.0,10.0,26,0.00,,---,0.00,VWS V14.00,2013-01-18 20:59:00,
2013-01-18 16:00:00,23.2,-7.4,30.32,NNW,328,4.0,10.0,25,0.00,,---,0.00,VWS V14.00,2013-01-18 21:00:00,
2013-01-18 16:02:00,23.2,-6.6,30.32,NNW,346,0.0,4.0,26,0.00,,---,0.00,VWS V14.00,2013-01-18 21:02:00,
2013-01-18 16:04:00,23.2,-6.6,30.32,North,1,1.0,4.0,26,0.00,,---,0.00,VWS V14.00,2013-01-18 21:04:00,
2013-01-18 16:07:00,23.2,-7.4,30.32,North,349,0.0,4.0,25,0.00,,---,0.00,VWS V14.00,2013-01-18 21:07:00,
2013-01-18 16:09:00,23.2,-6.6,30.32,NNW,348,0.0,4.0,26,0.00,,---,0.00,VWS V14.00,2013-01-18 21:09:00,
2013-01-18 16:12:00,23.2,-6.6,30.32,WNW,283,1.0,9.0,26,0.00,,---,0.00,VWS V14.00,2013-01-18 21:12:00,
2013-01-18 16:14:00,23.2,-5.8,30.33,NNW,341,4.0,5.0,27,0.00,,---,0.00,VWS V14.00,2013-01-18 21:14:00,
2013-01-18 16:15:00,23.2,-5.8,30.33,North,1,0.0,9.0,27,0.00,,---,0.00,VWS V14.00,2013-01-18 21:15:00,
2013-01-18 16:17:00,23.0,-6.0,30.33,North,349,1.0,5.0,27,0.00,,---,0.00,VWS V14.00,2013-01-18 21:17:00,
2013-01-18 16:18:00,23.0,-6.8,30.33,North,349,0.0,5.0,26,0.00,,---,0.00,VWS V14.00,2013-01-18 21:18:00,
2013-01-18 16:19:00,23.0,-6.8,30.33,NNW,347,0.0,5.0,26,0.00,,---,0.00,VWS V14.00,2013-01-18 21:19:00,
2013-01-18 16:22:00,22.9,-6.1,30.33,WSW,245,0.0,5.0,27,0.00,,---,0.00,VWS V14.00,2013-01-18 21:22:00,
2013-01-18 16:23:00,22.9,-6.1,30.33,WSW,245,1.0,5.0,27,0.00,,---,0.00,VWS V14.00,2013-01-18 21:23:00,
2013-01-18 16:24:00,22.9,-6.1,30.33,WSW,245,0.0,5.0,27,0.00,,---,0.00,VWS V14.00,2013-01-18 21:24:00,
2013-01-18 16:27:00,22.7,-6.2,30.33,WSW,245,0.0,5.0,27,0.00,,---,0.00,VWS V14.00,2013-01-18 21:27:00,
2013-01-18 16:28:00,22.7,-6.2,30.33,WSW,245,0.0,5.0,27,0.00,,---,0.00,VWS V14.00,2013-01-18 21:28:00,
2013-01-18 16:29:00,22.7,-7.0,30.33,WSW,245,0.0,1.0,26,0.00,,---,0.00,VWS V14.00,2013-01-18 21:29:00,
2013-01-18 16:30:00,22.7,-7.0,30.33,WSW,245,1.0,5.0,26,0.00,,---,0.00,VWS V14.00,2013-01-18 21:30:00,
2013-01-18 16:32:00,22.7,-6.2,30.33,WSW,246,1.0,3.0,27,0.00,,---,0.00,VWS V14.00,2013-01-18 21:32:00,
2013-01-18 16:33:00,22.5,-6.4,30.33,WSW,246,0.0,3.0,27,0.00,,---,0.00,VWS V14.00,2013-01-18 21:33:00,
2013-01-18 16:34:00,22.5,-6.4,30.33,WSW,246,0.0,3.0,27,0.00,,---,0.00,VWS V14.00,2013-01-18 21:34:00,
2013-01-18 16:37:00,22.5,-5.7,30.33,West,273,1.0,3.0,28,0.00,,---,0.00,VWS V14.00,2013-01-18 21:37:00,
2013-01-18 16:38:00,22.5,-5.7,30.33,West,262,3.0,3.0,28,0.00,,---,0.00,VWS V14.00,2013-01-18 21:38:00,
2013-01-18 16:40:00,22.5,-5.7,30.33,West,271,2.0,3.0,28,0.00,,---,0.00,VWS V14.00,2013-01-18 21:40:00,
2013-01-18 16:42:00,22.4,-5.8,30.33,West,269,0.0,5.0,28,0.00,,---,0.00,VWS V14.00,2013-01-18 21:42:00,
2013-01-18 16:43:00,22.4,-5.0,30.34,West,269,0.0,5.0,29,0.00,,---,0.00,VWS V14.00,2013-01-18 21:43:00,
2013-01-18 16:45:00,22.4,-5.8,30.34,West,269,0.0,2.0,28,0.00,,---,0.00,VWS V14.00,2013-01-18 21:45:00,
2013-01-18 16:47:00,22.4,-4.3,30.34,West,269,0.0,2.0,30,0.00,,---,0.00,VWS V14.00,2013-01-18 21:47:00,
2013-01-18 16:48:00,22.4,-4.3,30.34,West,269,0.0,2.0,30,0.00,,---,0.00,VWS V14.00,2013-01-18 21:48:00,
2013-01-18 16:50:00,22.2,-4.5,30.34,West,269,0.0,2.0,30,0.00,,---,0.00,VWS V14.00,2013-01-18 21:50:00,
2013-01-18 16:53:00,22.1,-5.3,30.34,West,269,0.0,2.0,29,0.00,,---,0.00,VWS V14.00,2013-01-18 21:53:00,
2013-01-18 16:54:00,22.1,-4.6,30.34,West,269,1.0,2.0,30,0.00,,---,0.00,VWS V14.00,2013-01-18 21:54:00,
2013-01-18 16:55:00,22.1,-5.3,30.34,West,278,5.0,5.0,29,0.00,,---,0.00,VWS V14.00,2013-01-18 21:55:00,
2013-01-18 16:58:00,22.1,-5.3,30.34,West,264,0.0,5.0,29,0.00,,---,0.00,VWS V14.00,2013-01-18 21:58:00,
2013-01-18 16:59:00,21.9,-5.5,30.34,West,273,0.0,5.0,29,0.00,,---,0.00,VWS V14.00,2013-01-18 21:59:00,
2013-01-18 17:00:00,21.9,-4.8,30.34,West,273,2.0,3.0,30,0.00,,---,0.00,VWS V14.00,2013-01-18 22:00:00,
2013-01-18 17:03:00,21.9,-5.5,30.34,North,358,2.0,4.0,29,0.00,,---,0.00,VWS V14.00,2013-01-18 22:03:00,
2013-01-18 17:04:00,21.9,-5.5,30.34,West,264,0.0,5.0,29,0.00,,---,0.00,VWS V14.00,2013-01-18 22:04:00,
2013-01-18 17:05:00,21.9,-4.8,30.34,West,263,2.0,5.0,30,0.00,,---,0.00,VWS V14.00,2013-01-18 22:05:00,
2013-01-18 17:08:00,21.8,-4.9,30.34,West,263,1.0,5.0,30,0.00,,---,0.00,VWS V14.00,2013-01-18 22:08:00,
2013-01-18 17:09:00,21.8,-5.6,30.34,West,262,0.0,5.0,29,0.00,,---,0.00,VWS V14.00,2013-01-18 22:09:00,
2013-01-18 17:10:00,21.8,-4.9,30.34,West,264,0.0,5.0,30,0.00,,---,0.00,VWS V14.00,2013-01-18 22:10:00,
2013-01-18 17:13:00,21.6,-5.7,30.34,West,266,0.0,5.0,29,0.00,,---,0.00,VWS V14.00,2013-01-18 22:13:00,
2013-01-18 17:14:00,21.6,-5.7,30.35,West,266,0.0,5.0,29,0.00,,---,0.00,VWS V14.00,2013-01-18 22:14:00,
2013-01-18 17:15:00,21.6,-5.0,30.35,West,266,1.0,1.0,30,0.00,,---,0.00,VWS V14.00,2013-01-18 22:15:00,
2013-01-18 17:18:00,21.6,-5.0,30.35,West,266,0.0,3.0,30,0.00,,---,0.00,VWS V14.00,2013-01-18 22:18:00,
2013-01-18 17:19:00,21.4,-4.5,30.35,West,267,0.0,3.0,31,0.00,,---,0.00,VWS V14.00,2013-01-18 22:19:00,
2013-01-18 17:20:00,21.4,-4.5,30.35,West,267,0.0,3.0,31,0.00,,---,0.00,VWS V14.00,2013-01-18 22:20:00,
2013-01-18 17:23:00,21.4,-4.5,30.35,West,267,0.0,3.0,31,0.00,,---,0.00,VWS V14.00,2013-01-18 22:23:00,
2013-01-18 17:24:00,21.3,-4.6,30.35,West,267,0.0,3.0,31,0.00,,---,0.00,VWS V14.00,2013-01-18 22:24:00,
2013-01-18 17:25:00,21.3,-4.6,30.35,West,267,0.0,3.0,31,0.00,,---,0.00,VWS V14.00,2013-01-18 22:25:00,
2013-01-18 17:28:00,21.3,-4.0,30.35,West,267,5.0,5.0,32,0.00,,---,0.00,VWS V14.00,2013-01-18 22:28:00,
2013-01-18 17:29:00,21.1,-4.1,30.36,WNW,290,0.0,0.0,32,0.00,,---,0.00,VWS V14.00,2013-01-18 22:29:00,
2013-01-18 17:30:00,21.1,-4.8,30.36,WNW,290,0.0,0.0,31,0.00,,---,0.00,VWS V14.00,2013-01-18 22:30:00,
2013-01-18 17:33:00,21.1,-4.1,30.36,WNW,290,0.0,2.0,32,0.00,,---,0.00,VWS V14.00,2013-01-18 22:33:00,
2013-01-18 17:34:00,21.1,-3.5,30.36,WNW,290,0.0,2.0,33,0.00,,---,0.00,VWS V14.00,2013-01-18 22:34:00,
2013-01-18 17:35:00,21.1,-4.1,30.36,WNW,290,0.0,2.0,32,0.00,,---,0.00,VWS V14.00,2013-01-18 22:35:00,
2013-01-18 17:38:00,21.0,-3.6,30.36,WNW,290,0.0,2.0,33,0.00,,---,0.00,VWS V14.00,2013-01-18 22:38:00,
2013-01-18 17:39:00,21.0,-3.6,30.36,WNW,290,0.0,2.0,33,0.00,,---,0.00,VWS V14.00,2013-01-18 22:39:00,
2013-01-18 17:40:00,21.0,-3.6,30.36,WNW,290,0.0,2.0,33,0.00,,---,0.00,VWS V14.00,2013-01-18 22:40:00,
2013-01-18 17:43:00,20.8,-3.8,30.37,WNW,290,0.0,2.0,33,0.00,,---,0.00,VWS V14.00,2013-01-18 22:43:00,
2013-01-18 17:44:00,20.8,-3.8,30.37,WNW,290,0.0,2.0,33,0.00,,---,0.00,VWS V14.00,2013-01-18 22:44:00,
2013-01-18 17:45:00,20.8,-3.8,30.37,WNW,290,0.0,0.0,33,0.00,,---,0.00,VWS V14.00,2013-01-18 22:45:00,
2013-01-18 17:48:00,20.6,-3.9,30.37,WNW,290,0.0,0.0,33,0.00,,---,0.00,VWS V14.00,2013-01-18 22:48:00,
2013-01-18 17:49:00,20.6,-3.9,30.37,WNW,290,0.0,0.0,33,0.00,,---,0.00,VWS V14.00,2013-01-18 22:49:00,
2013-01-18 17:50:00,20.6,-3.9,30.37,WNW,290,0.0,0.0,33,0.00,,---,0.00,VWS V14.00,2013-01-18 22:50:00,
2013-01-18 17:53:00,20.5,-3.4,30.37,WNW,290,0.0,1.0,34,0.00,,---,0.00,VWS V14.00,2013-01-18 22:53:00,
2013-01-18 17:54:00,20.5,-3.4,30.37,WNW,290,0.0,1.0,34,0.00,,---,0.00,VWS V14.00,2013-01-18 22:54:00,
2013-01-18 17:55:00,20.5,-3.4,30.37,WNW,290,0.0,1.0,34,0.00,,---,0.00,VWS V14.00,2013-01-18 22:55:00,
2013-01-18 17:59:00,20.5,-2.2,30.37,WNW,290,0.0,1.0,36,0.00,,---,0.00,VWS V14.00,2013-01-18 22:59:00,
2013-01-18 18:00:00,20.3,-3.6,30.37,WNW,291,0.0,0.0,34,0.00,,---,0.00,VWS V14.00,2013-01-18 23:00:00,
2013-01-18 18:04:00,20.3,-2.4,30.37,WNW,290,0.0,0.0,36,0.00,,---,0.00,VWS V14.00,2013-01-18 23:04:00,
2013-01-18 18:05:00,20.2,-2.5,30.37,WNW,290,0.0,0.0,36,0.00,,---,0.00,VWS V14.00,2013-01-18 23:05:00,
2013-01-18 18:09:00,20.2,-1.9,30.37,WNW,290,0.0,1.0,37,0.00,,---,0.00,VWS V14.00,2013-01-18 23:09:00,
2013-01-18 18:10:00,20.0,-2.1,30.37,WNW,290,0.0,1.0,37,0.00,,---,0.00,VWS V14.00,2013-01-18 23:10:00,
2013-01-18 18:11:00,20.0,-2.1,30.37,WNW,290,0.0,1.0,37,0.00,,---,0.00,VWS V14.00,2013-01-18 23:11:00,
2013-01-18 18:14:00,19.9,-2.2,30.38,WNW,290,0.0,1.0,37,0.00,,---,0.00,VWS V14.00,2013-01-18 23:14:00,
2013-01-18 18:15:00,19.9,-2.2,30.38,WNW,290,0.0,0.0,37,0.00,,---,0.00,VWS V14.00,2013-01-18 23:15:00,
2013-01-18 18:16:00,19.9,-2.2,30.38,WNW,290,0.0,0.0,37,0.00,,---,0.00,VWS V14.00,2013-01-18 23:16:00,
2013-01-18 18:19:00,19.7,-2.3,30.38,WNW,290,0.0,0.0,37,0.00,,---,0.00,VWS V14.00,2013-01-18 23:19:00,
2013-01-18 18:20:00,19.7,-2.3,30.38,WNW,290,0.0,0.0,37,0.00,,---,0.00,VWS V14.00,2013-01-18 23:20:00,
2013-01-18 18:21:00,19.7,-2.3,30.38,WNW,290,0.0,0.0,37,0.00,,---,0.00,VWS V14.00,2013-01-18 23:21:00,
2013-01-18 18:24:00,19.5,-3.1,30.38,WNW,290,0.0,0.0,36,0.00,,---,0.00,VWS V14.00,2013-01-18 23:24:00,
2013-01-18 18:25:00,19.5,-2.5,30.38,WNW,290,0.0,0.0,37,0.00,,---,0.00,VWS V14.00,2013-01-18 23:25:00,
2013-01-18 18:26:00,19.5,-2.5,30.38,WNW,290,0.0,0.0,37,0.00,,---,0.00,VWS V14.00,2013-01-18 23:26:00,
2013-01-18 18:29:00,19.4,-3.2,30.38,WNW,290,0.0,1.0,36,0.00,,---,0.00,VWS V14.00,2013-01-18 23:29:00,
2013-01-18 18:30:00,19.4,-3.2,30.38,WNW,290,0.0,1.0,36,0.00,,---,0.00,VWS V14.00,2013-01-18 23:30:00,
2013-01-18 18:31:00,19.4,-3.2,30.38,WNW,290,0.0,1.0,36,0.00,,---,0.00,VWS V14.00,2013-01-18 23:31:00,
2013-01-18 18:35:00,19.4,-3.2,30.38,WNW,290,0.0,2.0,36,0.00,,---,0.00,VWS V14.00,2013-01-18 23:35:00,
2013-01-18 18:36:00,19.4,-3.2,30.38,WNW,290,0.0,2.0,36,0.00,,---,0.00,VWS V14.00,2013-01-18 23:36:00,
2013-01-18 18:39:00,19.4,-3.2,30.38,WNW,290,0.0,2.0,36,0.00,,---,0.00,VWS V14.00,2013-01-18 23:39:00,
2013-01-18 18:41:00,19.4,-2.6,30.38,WNW,290,0.0,2.0,37,0.00,,---,0.00,VWS V14.00,2013-01-18 23:41:00,
2013-01-18 18:44:00,19.2,-2.8,30.39,WNW,290,0.0,0.0,37,0.00,,---,0.00,VWS V14.00,2013-01-18 23:44:00,
2013-01-18 18:45:00,19.2,-2.8,30.39,WNW,290,0.0,2.0,37,0.00,,---,0.00,VWS V14.00,2013-01-18 23:45:00,
2013-01-18 18:46:00,19.2,-2.8,30.39,WNW,290,0.0,0.0,37,0.00,,---,0.00,VWS V14.00,2013-01-18 23:46:00,
2013-01-18 18:49:00,19.2,-2.8,30.39,WNW,290,0.0,1.0,37,0.00,,---,0.00,VWS V14.00,2013-01-18 23:49:00,
2013-01-18 18:51:00,19.2,-2.8,30.39,WNW,290,0.0,1.0,37,0.00,,---,0.00,VWS V14.00,2013-01-18 23:51:00,
2013-01-18 18:54:00,19.1,-2.9,30.39,WNW,290,1.0,1.0,37,0.00,,---,0.00,VWS V14.00,2013-01-18 23:54:00,
2013-01-18 18:56:00,19.1,-2.9,30.39,WNW,290,0.0,1.0,37,0.00,,---,0.00,VWS V14.00,2013-01-18 23:56:00,
2013-01-18 19:00:00,19.1,-2.9,30.39,WNW,290,0.0,0.0,37,0.00,,---,0.00,VWS V14.00,2013-01-19 00:00:00,
2013-01-18 19:01:00,19.1,-2.3,30.39,WNW,290,0.0,0.0,38,0.00,,---,0.00,VWS V14.00,2013-01-19 00:01:00,
2013-01-18 19:05:00,19.2,0.9,30.39,WNW,290,0.0,1.0,44,0.00,,---,0.00,VWS V14.00,2013-01-19 00:05:00,
2013-01-18 19:06:00,19.2,-0.6,30.39,WNW,290,0.0,1.0,41,0.00,,---,0.00,VWS V14.00,2013-01-19 00:06:00,
2013-01-18 19:10:00,19.1,-0.7,30.39,WNW,290,0.0,1.0,41,0.00,,---,0.00,VWS V14.00,2013-01-19 00:10:00,
2013-01-18 19:11:00,19.1,-0.7,30.39,WNW,290,0.0,1.0,41,0.00,,---,0.00,VWS V14.00,2013-01-19 00:11:00,
2013-01-18 19:12:00,19.1,-0.2,30.39,WNW,290,0.0,1.0,42,0.00,,---,0.00,VWS V14.00,2013-01-19 00:12:00,
2013-01-18 19:15:00,18.9,-0.9,30.39,WNW,290,0.0,1.0,41,0.00,,---,0.00,VWS V14.00,2013-01-19 00:15:00,
2013-01-18 19:16:00,18.9,0.6,30.39,WNW,290,0.0,1.0,44,0.00,,---,0.00,VWS V14.00,2013-01-19 00:16:00,
2013-01-18 19:17:00,18.8,0.5,30.39,WNW,290,0.0,1.0,44,0.00,,---,0.00,VWS V14.00,2013-01-19 00:17:00,
2013-01-18 19:20:00,18.8,-0.5,30.39,WNW,291,0.0,1.0,42,0.00,,---,0.00,VWS V14.00,2013-01-19 00:20:00,
2013-01-18 19:21:00,18.8,-1.0,30.39,WNW,290,0.0,1.0,41,0.00,,---,0.00,VWS V14.00,2013-01-19 00:21:00,
2013-01-18 19:22:00,18.8,-1.0,30.39,WNW,290,0.0,1.0,41,0.00,,---,0.00,VWS V14.00,2013-01-19 00:22:00,
2013-01-18 19:25:00,18.6,-0.7,30.39,WNW,290,0.0,1.0,42,0.00,,---,0.00,VWS V14.00,2013-01-19 00:25:00,
2013-01-18 19:26:00,18.6,-1.2,30.39,WNW,290,0.0,1.0,41,0.00,,---,0.00,VWS V14.00,2013-01-19 00:26:00,
2013-01-18 19:27:00,18.6,-1.2,30.39,WNW,290,0.0,1.0,41,0.00,,---,0.00,VWS V14.00,2013-01-19 00:27:00,
2013-01-18 19:30:00,18.6,-0.7,30.39,WNW,290,0.0,0.0,42,0.00,,---,0.00,VWS V14.00,2013-01-19 00:30:00,
2013-01-18 19:32:00,18.6,-0.7,30.39,WNW,291,0.0,0.0,42,0.00,,---,0.00,VWS V14.00,2013-01-19 00:32:00,
2013-01-18 19:35:00,18.6,-0.7,30.39,SW,231,0.0,2.0,42,0.00,,---,0.00,VWS V14.00,2013-01-19 00:35:00,
2013-01-18 19:37:00,18.6,-0.7,30.39,SW,231,0.0,2.0,42,0.00,,---,0.00,VWS V14.00,2013-01-19 00:37:00,
2013-01-18 19:41:00,18.4,-0.3,30.39,SW,231,0.0,2.0,43,0.00,,---,0.00,VWS V14.00,2013-01-19 00:41:00,
2013-01-18 19:42:00,18.4,-0.9,30.39,SW,231,0.0,2.0,42,0.00,,---,0.00,VWS V14.00,2013-01-19 00:42:00,
2013-01-18 19:45:00,18.4,-0.9,30.39,SW,231,0.0,2.0,42,0.00,,---,0.00,VWS V14.00,2013-01-19 00:45:00,
2013-01-18 19:46:00,18.4,-0.3,30.39,SW,231,0.0,1.0,43,0.00,,---,0.00,VWS V14.00,2013-01-19 00:46:00,
2013-01-18 19:47:00,18.4,-0.9,30.39,SSW,208,0.0,2.0,42,0.00,,---,0.00,VWS V14.00,2013-01-19 00:47:00,
2013-01-18 19:48:00,18.4,-1.4,30.39,SSW,208,0.0,2.0,41,0.00,,---,0.00,VWS V14.00,2013-01-19 00:48:00,
2013-01-18 19:51:00,18.6,1.3,30.39,SSW,208,0.0,2.0,46,0.00,,---,0.00,VWS V14.00,2013-01-19 00:51:00,
2013-01-18 19:52:00,18.6,0.3,30.39,SSW,207,0.0,2.0,44,0.00,,---,0.00,VWS V14.00,2013-01-19 00:52:00,
2013-01-18 19:53:00,18.6,-0.7,30.39,SSW,207,0.0,2.0,42,0.00,,---,0.00,VWS V14.00,2013-01-19 00:53:00,
2013-01-18 19:56:00,18.6,-1.2,30.39,SSW,207,0.0,2.0,41,0.00,,---,0.00,VWS V14.00,2013-01-19 00:56:00,
2013-01-18 19:57:00,18.6,-1.2,30.39,SSW,207,1.0,2.0,41,0.00,,---,0.00,VWS V14.00,2013-01-19 00:57:00,
2013-01-18 19:58:00,18.6,-1.2,30.39,SW,215,2.0,2.0,41,0.00,,---,0.00,VWS V14.00,2013-01-19 00:58:00,
2013-01-18 20:00:00,18.8,-1.0,30.39,SW,215,0.0,2.0,41,0.00,,---,0.00,VWS V14.00,2013-01-19 01:00:00,
2013-01-18 20:01:00,18.8,-1.5,30.39,SW,215,0.0,3.0,40,0.00,,---,0.00,VWS V14.00,2013-01-19 01:01:00,
2013-01-18 20:02:00,18.8,-1.0,30.39,SW,215,0.0,3.0,41,0.00,,---,0.00,VWS V14.00,2013-01-19 01:02:00,
2013-01-18 20:03:00,18.8,-1.0,30.39,SW,215,0.0,3.0,41,0.00,,---,0.00,VWS V14.00,2013-01-19 01:03:00,
2013-01-18 20:06:00,18.8,-1.0,30.39,SW,215,1.0,3.0,41,0.00,,---,0.00,VWS V14.00,2013-01-19 01:06:00,
2013-01-18 20:07:00,18.8,-0.5,30.39,SW,215,0.0,3.0,42,0.00,,---,0.00,VWS V14.00,2013-01-19 01:07:00,
2013-01-18 20:08:00,18.8,-1.0,30.39,SW,215,0.0,3.0,41,0.00,,---,0.00,VWS V14.00,2013-01-19 01:08:00,
2013-01-18 20:11:00,18.9,0.6,30.39,SW,215,0.0,3.0,44,0.00,,---,0.00,VWS V14.00,2013-01-19 01:11:00,
2013-01-18 20:12:00,18.9,0.1,30.39,SW,215,0.0,3.0,43,0.00,,---,0.00,VWS V14.00,2013-01-19 01:12:00,
2013-01-18 20:13:00,18.9,0.1,30.39,SW,215,0.0,3.0,43,0.00,,---,0.00,VWS V14.00,2013-01-19 01:13:00,
2013-01-18 20:15:00,18.8,0.0,30.39,SSW,210,0.0,3.0,43,0.00,,---,0.00,VWS V14.00,2013-01-19 01:15:00,
2013-01-18 20:16:00,18.8,0.0,30.39,SSW,210,0.0,0.0,43,0.00,,---,0.00,VWS V14.00,2013-01-19 01:16:00,
2013-01-18 20:18:00,18.8,-0.5,30.39,SSW,210,0.0,0.0,42,0.00,,---,0.00,VWS V14.00,2013-01-19 01:18:00,
2013-01-18 20:22:00,18.8,-0.5,30.39,SSW,210,0.0,1.0,42,0.00,,---,0.00,VWS V14.00,2013-01-19 01:22:00,
2013-01-18 20:23:00,18.8,-0.5,30.39,SSW,210,0.0,1.0,42,0.00,,---,0.00,VWS V14.00,2013-01-19 01:23:00,
2013-01-18 20:27:00,18.6,-0.7,30.39,SSW,213,1.0,3.0,42,0.00,,---,0.00,VWS V14.00,2013-01-19 01:27:00,
2013-01-18 20:28:00,18.6,-0.2,30.39,SSW,213,0.0,3.0,43,0.00,,---,0.00,VWS V14.00,2013-01-19 01:28:00,
2013-01-18 20:30:00,18.8,1.0,30.39,SSW,213,0.0,3.0,45,0.00,,---,0.00,VWS V14.00,2013-01-19 01:30:00,
2013-01-18 20:32:00,18.8,0.5,30.39,SW,214,3.0,3.0,44,0.00,,---,0.00,VWS V14.00,2013-01-19 01:32:00,
2013-01-18 20:33:00,18.8,0.0,30.39,SW,214,0.0,3.0,43,0.00,,---,0.00,VWS V14.00,2013-01-19 01:33:00,
2013-01-18 20:34:00,18.8,0.5,30.39,SW,214,0.0,3.0,44,0.00,,---,0.00,VWS V14.00,2013-01-19 01:34:00,
2013-01-18 20:37:00,18.8,0.5,30.39,SW,214,0.0,3.0,44,0.00,,---,0.00,VWS V14.00,2013-01-19 01:37:00,
2013-01-18 20:38:00,18.6,0.3,30.39,SW,214,2.0,3.0,44,0.00,,---,0.00,VWS V14.00,2013-01-19 01:38:00,
2013-01-18 20:39:00,18.8,0.5,30.39,SW,214,0.0,3.0,44,0.00,,---,0.00,VWS V14.00,2013-01-19 01:39:00,
2013-01-18 20:42:00,18.6,0.8,30.39,SW,214,0.0,3.0,45,0.00,,---,0.00,VWS V14.00,2013-01-19 01:42:00,
2013-01-18 20:43:00,18.6,0.3,30.39,SW,214,0.0,3.0,44,0.00,,---,0.00,VWS V14.00,2013-01-19 01:43:00,
2013-01-18 20:44:00,18.6,0.8,30.39,SW,214,0.0,0.0,45,0.00,,---,0.00,VWS V14.00,2013-01-19 01:44:00,
2013-01-18 20:45:00,18.6,0.3,30.39,SW,214,0.0,3.0,44,0.00,,---,0.00,VWS V14.00,2013-01-19 01:45:00,
2013-01-18 20:47:00,18.6,0.8,30.39,SW,214,0.0,1.0,45,0.00,,---,0.00,VWS V14.00,2013-01-19 01:47:00,
2013-01-18 20:48:00,18.6,0.3,30.39,SW,214,0.0,1.0,44,0.00,,---,0.00,VWS V14.00,2013-01-19 01:48:00,
2013-01-18 20:49:00,18.6,0.3,30.39,SW,214,0.0,1.0,44,0.00,,---,0.00,VWS V14.00,2013-01-19 01:49:00,
2013-01-18 20:52:00,18.4,0.6,30.39,SW,214,0.0,1.0,45,0.00,,---,0.00,VWS V14.00,2013-01-19 01:52:00,
2013-01-18 20:53:00,18.4,1.1,30.39,SW,214,0.0,1.0,46,0.00,,---,0.00,VWS V14.00,2013-01-19 01:53:00,
2013-01-18 20:54:00,18.4,0.6,30.39,SW,214,0.0,1.0,45,0.00,,---,0.00,VWS V14.00,2013-01-19 01:54:00,
2013-01-18 20:57:00,18.4,0.6,30.39,SSW,207,0.0,2.0,45,0.00,,---,0.00,VWS V14.00,2013-01-19 01:57:00,
2013-01-18 20:58:00,18.4,1.1,30.39,SSW,208,0.0,2.0,46,0.00,,---,0.00,VWS V14.00,2013-01-19 01:58:00,
2013-01-18 20:59:00,18.4,1.1,30.39,SSW,208,0.0,2.0,46,0.00,,---,0.00,VWS V14.00,2013-01-19 01:59:00,
2013-01-18 21:00:00,18.4,1.5,30.39,SSW,208,0.0,2.0,47,0.00,,---,0.00,VWS V14.00,2013-01-19 02:00:00,
2013-01-18 21:03:00,18.6,1.7,30.39,SSW,212,2.0,2.0,47,0.00,,---,0.00,VWS V14.00,2013-01-19 02:03:00,
2013-01-18 21:04:00,18.6,0.8,30.39,SSW,212,0.0,2.0,45,0.00,,---,0.00,VWS V14.00,2013-01-19 02:04:00,
2013-01-18 21:05:00,18.6,0.3,30.39,SSW,212,0.0,2.0,44,0.00,,---,0.00,VWS V14.00,2013-01-19 02:05:00,
2013-01-18 21:08:00,18.8,1.0,30.39,SSW,212,0.0,2.0,45,0.00,,---,0.00,VWS V14.00,2013-01-19 02:08:00,
2013-01-18 21:09:00,18.8,1.0,30.39,SSW,212,0.0,2.0,45,0.00,,---,0.00,VWS V14.00,2013-01-19 02:09:00,
2013-01-18 21:10:00,18.8,1.0,30.39,SSW,212,0.0,2.0,45,0.00,,---,0.00,VWS V14.00,2013-01-19 02:10:00,
2013-01-18 21:13:00,18.6,1.3,30.39,SSW,212,0.0,2.0,46,0.00,,---,0.00,VWS V14.00,2013-01-19 02:13:00,
2013-01-18 21:14:00,18.6,1.3,30.39,SSW,212,0.0,2.0,46,0.00,,---,0.00,VWS V14.00,2013-01-19 02:14:00,
2013-01-18 21:15:00,18.6,1.3,30.39,SSW,212,0.0,0.0,46,0.00,,---,0.00,VWS V14.00,2013-01-19 02:15:00,
2013-01-18 21:18:00,18.6,1.7,30.39,SSE,148,0.0,2.0,47,0.00,,---,0.00,VWS V14.00,2013-01-19 02:18:00,
2013-01-18 21:19:00,18.6,1.3,30.39,SSE,148,0.0,2.0,46,0.00,,---,0.00,VWS V14.00,2013-01-19 02:19:00,
2013-01-18 21:20:00,18.6,1.3,30.39,SSE,148,0.0,2.0,46,0.00,,---,0.00,VWS V14.00,2013-01-19 02:20:00,
2013-01-18 21:23:00,18.6,0.8,30.39,South,174,2.0,3.0,45,0.00,,---,0.00,VWS V14.00,2013-01-19 02:23:00,
2013-01-18 21:24:00,18.6,0.8,30.39,South,174,0.0,3.0,45,0.00,,---,0.00,VWS V14.00,2013-01-19 02:24:00,
2013-01-18 21:25:00,18.6,0.8,30.39,South,174,0.0,3.0,45,0.00,,---,0.00,VWS V14.00,2013-01-19 02:25:00,
2013-01-18 21:28:00,18.6,1.3,30.38,South,174,0.0,3.0,46,0.00,,---,0.00,VWS V14.00,2013-01-19 02:28:00,
2013-01-18 21:29:00,18.6,1.3,30.38,South,174,0.0,3.0,46,0.00,,---,0.00,VWS V14.00,2013-01-19 02:29:00,
2013-01-18 21:30:00,18.6,1.3,30.38,South,174,0.0,0.0,46,0.00,,---,0.00,VWS V14.00,2013-01-19 02:30:00,
2013-01-18 21:33:00,18.6,1.3,30.38,South,174,1.0,1.0,46,0.00,,---,0.00,VWS V14.00,2013-01-19 02:33:00,
2013-01-18 21:34:00,18.6,1.3,30.38,South,174,0.0,1.0,46,0.00,,---,0.00,VWS V14.00,2013-01-19 02:34:00,
2013-01-18 21:35:00,18.6,1.3,30.38,South,174,0.0,1.0,46,0.00,,---,0.00,VWS V14.00,2013-01-19 02:35:00,
2013-01-18 21:38:00,18.6,0.8,30.38,South,174,0.0,3.0,45,0.00,,---,0.00,VWS V14.00,2013-01-19 02:38:00,
2013-01-18 21:39:00,18.6,0.8,30.38,South,174,0.0,3.0,45,0.00,,---,0.00,VWS V14.00,2013-01-19 02:39:00,
2013-01-18 21:40:00,18.6,0.8,30.38,South,174,0.0,3.0,45,0.00,,---,0.00,VWS V14.00,2013-01-19 02:40:00,
2013-01-18 21:43:00,18.6,0.8,30.38,South,174,1.0,3.0,45,0.00,,---,0.00,VWS V14.00,2013-01-19 02:43:00,
2013-01-18 21:44:00,18.6,0.8,30.38,South,174,1.0,3.0,45,0.00,,---,0.00,VWS V14.00,2013-01-19 02:44:00,
2013-01-18 21:45:00,18.8,1.5,30.38,South,174,0.0,1.0,46,0.00,,---,0.00,VWS V14.00,2013-01-19 02:45:00,
2013-01-18 21:48:00,18.8,1.9,30.38,South,174,1.0,2.0,47,0.00,,---,0.00,VWS V14.00,2013-01-19 02:48:00,
2013-01-18 21:49:00,18.8,1.9,30.38,South,174,0.0,2.0,47,0.00,,---,0.00,VWS V14.00,2013-01-19 02:49:00,
2013-01-18 21:50:00,18.9,3.3,30.38,South,174,0.0,3.0,50,0.00,,---,0.00,VWS V14.00,2013-01-19 02:50:00,
2013-01-18 21:53:00,19.1,2.7,30.38,WSW,252,0.0,4.0,48,0.00,,---,0.00,VWS V14.00,2013-01-19 02:53:00,
2013-01-18 21:54:00,19.1,2.7,30.38,WSW,251,0.0,4.0,48,0.00,,---,0.00,VWS V14.00,2013-01-19 02:54:00,
2013-01-18 21:55:00,19.1,3.5,30.38,WSW,252,0.0,4.0,50,0.00,,---,0.00,VWS V14.00,2013-01-19 02:55:00,
2013-01-18 21:59:00,19.2,3.2,30.38,SW,217,0.0,4.0,49,0.00,,---,0.00,VWS V14.00,2013-01-19 02:59:00,
2013-01-18 22:00:00,19.2,4.1,30.38,SW,217,0.0,1.0,51,0.00,,---,0.00,VWS V14.00,2013-01-19 03:00:00,
2013-01-18 22:04:00,19.4,2.0,30.38,SW,217,1.0,2.0,46,0.00,,---,0.00,VWS V14.00,2013-01-19 03:04:00,
2013-01-18 22:05:00,19.2,1.8,30.38,SW,217,1.0,3.0,46,0.00,,---,0.00,VWS V14.00,2013-01-19 03:05:00,
2013-01-18 22:06:00,19.2,1.4,30.38,SW,218,2.0,4.0,45,0.00,,---,0.00,VWS V14.00,2013-01-19 03:06:00,
2013-01-18 22:09:00,19.2,1.4,30.38,SW,219,0.0,4.0,45,0.00,,---,0.00,VWS V14.00,2013-01-19 03:09:00,
2013-01-18 22:10:00,19.2,1.4,30.38,SW,218,0.0,4.0,45,0.00,,---,0.00,VWS V14.00,2013-01-19 03:10:00,
2013-01-18 22:11:00,19.2,1.4,30.38,SW,219,0.0,4.0,45,0.00,,---,0.00,VWS V14.00,2013-01-19 03:11:00,
2013-01-18 22:14:00,19.2,1.4,30.37,SW,218,0.0,4.0,45,0.00,,---,0.00,VWS V14.00,2013-01-19 03:14:00,
2013-01-18 22:15:00,19.1,1.3,30.37,SW,218,0.0,2.0,45,0.00,,---,0.00,VWS V14.00,2013-01-19 03:15:00,
2013-01-18 22:17:00,19.1,1.3,30.37,SW,218,0.0,2.0,45,0.00,,---,0.00,VWS V14.00,2013-01-19 03:17:00,
2013-01-18 22:19:00,19.1,1.3,30.37,SW,218,0.0,2.0,45,0.00,,---,0.00,VWS V14.00,2013-01-19 03:19:00,
2013-01-18 22:20:00,19.1,1.3,30.37,SW,218,0.0,2.0,45,0.00,,---,0.00,VWS V14.00,2013-01-19 03:20:00,
2013-01-18 22:22:00,19.1,1.7,30.37,SW,218,0.0,2.0,46,0.00,,---,0.00,VWS V14.00,2013-01-19 03:22:00,
2013-01-18 22:24:00,18.9,2.0,30.37,SW,218,0.0,2.0,47,0.00,,---,0.00,VWS V14.00,2013-01-19 03:24:00,
2013-01-18 22:25:00,18.9,2.0,30.37,SW,218,0.0,2.0,47,0.00,,---,0.00,VWS V14.00,2013-01-19 03:25:00,
2013-01-18 22:27:00,18.9,1.5,30.37,SW,219,0.0,2.0,46,0.00,,---,0.00,VWS V14.00,2013-01-19 03:27:00,
2013-01-18 22:29:00,18.9,1.5,30.37,South,191,1.0,4.0,46,0.00,,---,0.00,VWS V14.00,2013-01-19 03:29:00,
2013-01-18 22:30:00,18.9,1.5,30.37,SSW,200,1.0,2.0,46,0.00,,---,0.00,VWS V14.00,2013-01-19 03:30:00,
2013-01-18 22:32:00,19.1,1.3,30.37,WSW,244,1.0,4.0,45,0.00,,---,0.00,VWS V14.00,2013-01-19 03:32:00,
2013-01-18 22:34:00,19.1,1.7,30.37,WSW,244,0.0,4.0,46,0.00,,---,0.00,VWS V14.00,2013-01-19 03:34:00,
2013-01-18 22:35:00,19.1,1.7,30.37,WSW,244,0.0,4.0,46,0.00,,---,0.00,VWS V14.00,2013-01-19 03:35:00,
2013-01-18 22:37:00,19.1,1.7,30.37,WSW,244,0.0,4.0,46,0.00,,---,0.00,VWS V14.00,2013-01-19 03:37:00,
2013-01-18 22:39:00,19.1,1.7,30.37,WSW,244,1.0,4.0,46,0.00,,---,0.00,VWS V14.00,2013-01-19 03:39:00,
2013-01-18 22:40:00,19.1,1.7,30.37,WSW,244,0.0,4.0,46,0.00,,---,0.00,VWS V14.00,2013-01-19 03:40:00,
2013-01-18 22:42:00,19.2,1.8,30.37,WSW,244,2.0,4.0,46,0.00,,---,0.00,VWS V14.00,2013-01-19 03:42:00,
2013-01-18 22:45:00,19.2,1.4,30.36,WSW,244,1.0,2.0,45,0.00,,---,0.00,VWS V14.00,2013-01-19 03:45:00,
2013-01-18 22:47:00,19.2,1.4,30.36,WSW,242,1.0,6.0,45,0.00,,---,0.00,VWS V14.00,2013-01-19 03:47:00,
2013-01-18 22:50:00,19.2,1.4,30.36,WSW,242,1.0,6.0,45,0.00,,---,0.00,VWS V14.00,2013-01-19 03:50:00,
2013-01-18 22:52:00,19.4,1.5,30.36,South,179,4.0,6.0,45,0.00,,---,0.00,VWS V14.00,2013-01-19 03:52:00,
2013-01-18 22:55:00,19.4,1.5,30.36,SSW,196,0.0,6.0,45,0.00,,---,0.00,VWS V14.00,2013-01-19 03:55:00,
2013-01-18 22:57:00,19.4,1.5,30.36,SSE,166,0.0,6.0,45,0.00,,---,0.00,VWS V14.00,2013-01-19 03:57:00,
2013-01-18 23:00:00,19.4,1.5,30.35,SSW,208,0.0,1.0,45,0.00,,---,0.00,VWS V14.00,2013-01-19 04:00:00,
2013-01-18 23:02:00,19.4,1.5,30.35,SSW,207,0.0,2.0,45,0.00,,---,0.00,VWS V14.00,2013-01-19 04:02:00,
2013-01-18 23:05:00,19.4,1.5,30.35,SW,214,0.0,3.0,45,0.00,,---,0.00,VWS V14.00,2013-01-19 04:05:00,
2013-01-18 23:06:00,19.5,1.6,30.35,SW,214,0.0,3.0,45,0.00,,---,0.00,VWS V14.00,2013-01-19 04:06:00,
2013-01-18 23:08:00,19.5,1.6,30.35,SW,214,0.0,3.0,45,0.00,,---,0.00,VWS V14.00,2013-01-19 04:08:00,
2013-01-18 23:10:00,19.7,1.8,30.35,SW,214,0.0,3.0,45,0.00,,---,0.00,VWS V14.00,2013-01-19 04:10:00,
2013-01-18 23:11:00,19.7,1.8,30.35,South,181,1.0,3.0,45,0.00,,---,0.00,VWS V14.00,2013-01-19 04:11:00,
2013-01-18 23:13:00,19.9,1.5,30.35,SSW,195,0.0,4.0,44,0.00,,---,0.00,VWS V14.00,2013-01-19 04:13:00,
2013-01-18 23:15:00,19.9,1.5,30.35,SSE,153,0.0,1.0,44,0.00,,---,0.00,VWS V14.00,2013-01-19 04:15:00,
2013-01-18 23:16:00,20.0,1.6,30.35,SSE,153,0.0,1.0,44,0.00,,---,0.00,VWS V14.00,2013-01-19 04:16:00,
2013-01-18 23:18:00,20.0,2.1,30.35,South,183,2.0,3.0,45,0.00,,---,0.00,VWS V14.00,2013-01-19 04:18:00,
2013-01-18 23:20:00,20.2,1.8,30.35,SSE,160,0.0,3.0,44,0.00,,---,0.00,VWS V14.00,2013-01-19 04:20:00,
2013-01-18 23:21:00,20.2,1.8,30.35,SSE,160,0.0,3.0,44,0.00,,---,0.00,VWS V14.00,2013-01-19 04:21:00,
2013-01-18 23:23:00,20.2,1.8,30.35,SSE,160,0.0,3.0,44,0.00,,---,0.00,VWS V14.00,2013-01-19 04:23:00,
2013-01-18 23:26:00,20.3,2.4,30.35,SSE,158,0.0,3.0,45,0.00,,---,0.00,VWS V14.00,2013-01-19 04:26:00,
2013-01-18 23:28:00,20.3,1.9,30.35,WSW,252,0.0,4.0,44,0.00,,---,0.00,VWS V14.00,2013-01-19 04:28:00,
2013-01-18 23:30:00,20.3,1.4,30.35,SSW,205,0.0,4.0,43,0.00,,---,0.00,VWS V14.00,2013-01-19 04:30:00,
2013-01-18 23:31:00,20.5,2.1,30.35,SSW,205,0.0,2.0,44,0.00,,---,0.00,VWS V14.00,2013-01-19 04:31:00,
2013-01-18 23:34:00,20.5,2.1,30.35,SSW,205,0.0,2.0,44,0.00,,---,0.00,VWS V14.00,2013-01-19 04:34:00,
2013-01-18 23:36:00,20.6,2.6,30.35,SSW,199,1.0,2.0,45,0.00,,---,0.00,VWS V14.00,2013-01-19 04:36:00,
2013-01-18 23:37:00,20.6,2.6,30.35,South,188,0.0,2.0,45,0.00,,---,0.00,VWS V14.00,2013-01-19 04:37:00,
2013-01-18 23:39:00,20.6,2.2,30.35,South,188,1.0,2.0,44,0.00,,---,0.00,VWS V14.00,2013-01-19 04:39:00,
2013-01-18 23:41:00,20.6,2.2,30.35,South,184,0.0,4.0,44,0.00,,---,0.00,VWS V14.00,2013-01-19 04:41:00,
2013-01-18 23:42:00,20.8,2.3,30.35,South,186,0.0,4.0,44,0.00,,---,0.00,VWS V14.00,2013-01-19 04:42:00,
2013-01-18 23:44:00,20.8,2.3,30.34,SSW,193,5.0,5.0,44,0.00,,---,0.00,VWS V14.00,2013-01-19 04:44:00,
2013-01-18 23:45:00,20.8,2.3,30.34,SSW,195,2.0,5.0,44,0.00,,---,0.00,VWS V14.00,2013-01-19 04:45:00,
2013-01-18 23:46:00,20.8,2.3,30.34,West,264,0.0,6.0,44,0.00,,---,0.00,VWS V14.00,2013-01-19 04:46:00,
2013-01-18 23:47:00,21.0,2.5,30.34,South,182,2.0,6.0,44,0.00,,---,0.00,VWS V14.00,2013-01-19 04:47:00,
2013-01-18 23:49:00,21.0,2.5,30.34,SW,236,5.0,6.0,44,0.00,,---,0.00,VWS V14.00,2013-01-19 04:49:00,
2013-01-18 23:51:00,21.0,2.5,30.34,SW,226,4.0,6.0,44,0.00,,---,0.00,VWS V14.00,2013-01-19 04:51:00,
2013-01-18 23:52:00,21.0,2.0,30.34,SSW,200,5.0,6.0,43,0.00,,---,0.00,VWS V14.00,2013-01-19 04:52:00,
2013-01-18 23:54:00,21.1,2.1,30.34,South,176,1.0,10.0,43,0.00,,---,0.00,VWS V14.00,2013-01-19 04:54:00,
2013-01-18 23:56:00,21.1,2.1,30.34,SSW,197,0.0,10.0,43,0.00,,---,0.00,VWS V14.00,2013-01-19 04:56:00,
2013-01-18 23:57:00,21.1,2.6,30.34,SSW,198,0.0,10.0,44,0.00,,---,0.00,VWS V14.00,2013-01-19 04:57:00,
2013-01-18 23:59:00,21.1,2.6,30.33,WSW,240,7.0,10.0,44,0.00,,---,0.00,VWS V14.00,2013-01-19 04:59:00,